M I D A S
Marine Information and Data Acquisition System
Tripno 893 of the Zeeleeuw from 2005-05-02 06:51:35 to 2005-05-02 15:58:21
Back to CruiseResearch ActivitiesStationsMapUnderway DataData graphs

EquipmentUnitsComment
TimeDGPSUTC
LatitudeDGPSDM.mWGS84
LongitudeDGPSDM.mWGS84
TemperatureSBE03/SBE38deg celciusITS90
ConductivitySBE21S/mITS90
SalinitySBE21 Practical Salinity Units
ChlorophylAChelsea fluorimeterg/lCalibrated in Aceton
Missing or incorrect values are displayed as -999
Sea surface data collected by the RV Zeeleeuw from 2005-05-02 06:00:26 to 2005-05-02 16:09:17
                                                                                    Next 1000 lines
Time Latitude Longitude Temperature Conductivity Salinity ChlorophylA
2005-05-02 06:00:36 51°13.595 2°56.102 19.3381 4.931459 33.146267 -0.781249
2005-05-02 06:00:40 51°13.595 2°56.102 19.3302 4.931353 33.144972 -0.814958
2005-05-02 06:00:46 51°13.595 2°56.102 19.3267 4.931353 33.144972 -0.814958
2005-05-02 06:00:51 51°13.595 2°56.102 19.3214 4.931353 33.145472 -0.781249
2005-05-02 06:00:56 51°13.595 2°56.102 19.3172 4.931353 33.145472 -0.781249
2005-05-02 06:01:00 51°13.595 2°56.102 19.3115 4.931142 33.145382 -0.814958
2005-05-02 06:01:06 51°13.595 2°56.102 19.3091 4.931248 33.146178 -0.74754
2005-05-02 06:01:11 51°13.594 2°56.102 19.3058 4.931142 33.146383 -0.781249
2005-05-02 06:01:16 51°13.594 2°56.102 19.302 4.931142 33.146383 -0.781249
2005-05-02 06:01:20 51°13.594 2°56.102 19.2998 4.931037 33.147089 -0.814958
2005-05-02 06:01:26 51°13.594 2°56.102 19.2968 4.931037 33.147089 -0.814958
2005-05-02 06:01:31 51°13.594 2°56.102 19.2952 4.931037 33.147089 -0.781249
2005-05-02 06:01:36 51°13.594 2°56.102 19.2883 4.930931 33.146293 -0.781249
2005-05-02 06:01:40 51°13.594 2°56.101 19.2832 4.930931 33.146793 -0.814958
2005-05-02 06:01:46 51°13.594 2°56.101 19.2776 4.930931 33.146793 -0.814958
2005-05-02 06:01:51 51°13.594 2°56.101 19.2754 4.930826 33.145998 -0.814958
2005-05-02 06:01:56 51°13.594 2°56.101 19.2747 4.930931 33.147294 -0.781249
2005-05-02 06:02:01 51°13.594 2°56.101 19.2761 4.930931 33.146793 -0.74754
2005-05-02 06:02:06 51°13.594 2°56.101 19.2762 4.930826 33.146498 -0.781249
2005-05-02 06:02:11 51°13.594 2°56.101 19.276 4.930615 33.145408 -0.781249
2005-05-02 06:02:15 51°13.594 2°56.101 19.2752 4.930615 33.145408 -0.781249
2005-05-02 06:02:20 51°13.594 2°56.101 19.2744 4.93072 33.147204 -0.814958
2005-05-02 06:02:26 51°13.594 2°56.101 19.2695 4.930509 33.145613 -0.814958
2005-05-02 06:02:31 51°13.594 2°56.101 19.268 4.930615 33.146909 -0.781249
2005-05-02 06:02:36 51°13.594 2°56.101 19.2588 4.930509 33.146614 -0.781249
2005-05-02 06:02:40 51°13.594 2°56.102 19.2578 4.930509 33.147115 -0.781249
2005-05-02 06:02:46 51°13.594 2°56.102 19.2586 4.930509 33.147115 -0.781249
2005-05-02 06:02:51 51°13.594 2°56.102 19.2609 4.930298 33.145524 -0.814958
2005-05-02 06:02:55 51°13.594 2°56.102 19.2592 4.930404 33.14682 -0.814958
2005-05-02 06:03:01 51°13.594 2°56.102 19.2582 4.930298 33.146024 -0.781249
2005-05-02 06:03:05 51°13.594 2°56.102 19.2566 4.930193 33.146229 -0.74754
2005-05-02 06:03:11 51°13.594 2°56.102 19.2543 4.930193 33.146229 -0.814958
2005-05-02 06:03:16 51°13.594 2°56.102 19.2534 4.930193 33.146229 -0.814958
2005-05-02 06:03:21 51°13.594 2°56.102 19.252 4.930193 33.146229 -0.814958
2005-05-02 06:03:25 51°13.594 2°56.102 19.2505 4.929982 33.145139 -0.814958
2005-05-02 06:03:31 51°13.594 2°56.102 19.248 4.929982 33.145639 -0.814958
2005-05-02 06:03:36 51°13.594 2°56.102 19.247 4.929982 33.14614 -0.781249
2005-05-02 06:03:40 51°13.594 2°56.102 19.2443 4.929982 33.14614 -0.781249
2005-05-02 06:03:46 51°13.594 2°56.102 19.2441 4.929982 33.14614 -0.781249
2005-05-02 06:03:51 51°13.594 2°56.101 19.244 4.929876 33.145845 -0.814958
2005-05-02 06:03:56 51°13.594 2°56.101 19.241 4.929771 33.146551 -0.814958
2005-05-02 06:04:01 51°13.594 2°56.101 19.2407 4.929665 33.145255 -0.814958
2005-05-02 06:04:06 51°13.594 2°56.101 19.2408 4.929665 33.145755 -0.74754
2005-05-02 06:04:11 51°13.594 2°56.102 19.2401 4.929665 33.145755 -0.781249
2005-05-02 06:04:16 51°13.594 2°56.102 19.238 4.929665 33.145755 -0.781249
2005-05-02 06:04:20 51°13.594 2°56.102 19.2372 4.92956 33.14546 -0.814958
2005-05-02 06:04:26 51°13.594 2°56.102 19.2342 4.929454 33.145165 -0.781249
2005-05-02 06:04:31 51°13.594 2°56.102 19.2353 4.929349 33.14487 -0.781249
2005-05-02 06:04:36 51°13.594 2°56.101 19.2346 4.929454 33.146667 -0.781249
2005-05-02 06:04:41 51°13.594 2°56.101 19.2354 4.929349 33.145371 -0.781249
2005-05-02 06:04:46 51°13.594 2°56.101 19.2347 4.929349 33.145371 -0.781249
2005-05-02 06:04:51 51°13.594 2°56.101 19.2348 4.929349 33.145871 -0.814958
2005-05-02 06:04:56 51°13.594 2°56.101 19.232 4.929243 33.145576 -0.781249
2005-05-02 06:05:00 51°13.594 2°56.1 19.2317 4.929243 33.146077 -0.814958
2005-05-02 06:05:06 51°13.594 2°56.1 19.233 4.929138 33.145281 -0.814958
2005-05-02 06:05:11 51°13.594 2°56.1 19.2319 4.929138 33.146282 -0.781249
2005-05-02 06:05:16 51°13.594 2°56.1 19.2277 4.929138 33.146282 -0.781249
2005-05-02 06:05:21 51°13.594 2°56.1 19.2278 4.929138 33.146282 -0.814958
2005-05-02 06:05:26 51°13.594 2°56.101 19.2291 4.928927 33.145191 -0.781249
2005-05-02 06:05:31 51°13.594 2°56.101 19.2298 4.928927 33.145191 -0.74754
2005-05-02 06:05:35 51°13.594 2°56.101 19.2296 4.928821 33.144896 -0.781249
2005-05-02 06:05:41 51°13.594 2°56.101 19.227 4.928716 33.145102 -0.781249
2005-05-02 06:05:46 51°13.594 2°56.101 19.2255 4.928716 33.145102 -0.781249
2005-05-02 06:05:51 51°13.594 2°56.101 19.2273 4.928821 33.145898 -0.814958
2005-05-02 06:05:55 51°13.594 2°56.101 19.2273 4.928716 33.145602 -0.814958
2005-05-02 06:06:01 51°13.594 2°56.101 19.2281 4.928716 33.145602 -0.781249
2005-05-02 06:06:07 51°13.594 2°56.101 19.2265 4.928505 33.144512 -0.74754
2005-05-02 06:06:11 51°13.595 2°56.102 19.2357 4.928505 33.145012 -0.781249
2005-05-02 06:06:17 51°13.595 2°56.102 19.2272 4.928505 33.145012 -0.781249
2005-05-02 06:06:21 51°13.595 2°56.102 19.2286 4.928505 33.145513 -0.781249
2005-05-02 06:06:27 51°13.595 2°56.102 19.2283 4.928399 33.145218 -0.781249
2005-05-02 06:06:31 51°13.595 2°56.102 19.2295 4.928399 33.145719 -0.814958
2005-05-02 06:06:36 51°13.595 2°56.102 19.2268 4.928399 33.145719 -0.814958
2005-05-02 06:06:41 51°13.595 2°56.102 19.2267 4.928294 33.145424 -0.781249
2005-05-02 06:06:47 51°13.595 2°56.102 19.2291 4.928294 33.145424 -0.781249
2005-05-02 06:06:51 51°13.595 2°56.102 19.2303 4.928294 33.145424 -0.781249
2005-05-02 06:06:56 51°13.595 2°56.102 19.2278 4.928188 33.145128 -0.781249
2005-05-02 06:07:01 51°13.595 2°56.102 19.2281 4.928188 33.145128 -0.814958
2005-05-02 06:07:06 51°13.595 2°56.102 19.2228 4.928083 33.145334 -0.814958
2005-05-02 06:07:11 51°13.595 2°56.102 19.2219 4.928083 33.145334 -0.814958
2005-05-02 06:07:16 51°13.595 2°56.102 19.2256 4.928083 33.145334 -0.814958
2005-05-02 06:07:21 51°13.595 2°56.102 19.2307 4.927977 33.14554 -0.74754
2005-05-02 06:07:26 51°13.595 2°56.102 19.2281 4.927872 33.145245 -0.814958
2005-05-02 06:07:31 51°13.595 2°56.102 19.224 4.927872 33.144744 -0.781249
2005-05-02 06:07:37 51°13.595 2°56.102 19.224 4.927766 33.14495 -0.781249
2005-05-02 06:07:41 51°13.595 2°56.102 19.2248 4.927766 33.14495 -0.781249
2005-05-02 06:07:46 51°13.595 2°56.102 19.2252 4.927766 33.14495 -0.781249
2005-05-02 06:07:51 51°13.596 2°56.103 19.2245 4.927766 33.145951 -0.781249
2005-05-02 06:07:55 51°13.596 2°56.103 19.224 4.927661 33.145656 -0.781249
2005-05-02 06:08:01 51°13.596 2°56.103 19.2245 4.927661 33.145656 -0.74754
2005-05-02 06:08:06 51°13.596 2°56.103 19.226 4.927661 33.146157 -0.814958
2005-05-02 06:08:11 51°13.596 2°56.103 19.2247 4.927555 33.145862 -0.781249
2005-05-02 06:08:16 51°13.596 2°56.103 19.2222 4.927555 33.145862 -0.781249
2005-05-02 06:08:21 51°13.596 2°56.103 19.2225 4.92745 33.145066 -0.781249
2005-05-02 06:08:27 51°13.596 2°56.103 19.2234 4.92745 33.145567 -0.781249
2005-05-02 06:08:31 51°13.596 2°56.103 19.2252 4.927344 33.145272 -0.781249
2005-05-02 06:08:37 51°13.596 2°56.103 19.2243 4.927239 33.144976 -0.814958
2005-05-02 06:08:41 51°13.596 2°56.103 19.2236 4.927239 33.145477 -0.781249
2005-05-02 06:08:47 51°13.596 2°56.103 19.2248 4.927239 33.145477 -0.781249
2005-05-02 06:08:51 51°13.596 2°56.103 19.228 4.927133 33.145182 -0.781249
2005-05-02 06:08:56 51°13.596 2°56.103 19.2302 4.927028 33.144887 -0.781249
2005-05-02 06:09:01 51°13.596 2°56.103 19.2295 4.927133 33.145683 -0.781249
2005-05-02 06:09:07 51°13.596 2°56.103 19.2269 4.927028 33.145388 -0.781249
2005-05-02 06:09:11 51°13.596 2°56.102 19.2272 4.926922 33.145093 -0.814958
2005-05-02 06:09:16 51°13.596 2°56.102 19.2291 4.926922 33.145093 -0.814958
2005-05-02 06:09:21 51°13.596 2°56.102 19.2307 4.926817 33.144798 -0.814958
2005-05-02 06:09:27 51°13.596 2°56.102 19.2304 4.926817 33.145299 -0.781249
2005-05-02 06:09:31 51°13.596 2°56.102 19.2291 4.926817 33.145299 -0.814958
2005-05-02 06:09:36 51°13.596 2°56.102 19.2291 4.926817 33.1458 -0.781249
2005-05-02 06:09:41 51°13.596 2°56.102 19.2306 4.926711 33.145504 -0.781249
2005-05-02 06:09:46 51°13.596 2°56.102 19.2321 4.926711 33.145504 -0.781249
2005-05-02 06:09:51 51°13.596 2°56.102 19.2336 4.926711 33.145504 -0.781249
2005-05-02 06:09:57 51°13.595 2°56.101 19.235 4.926606 33.14571 -0.814958
2005-05-02 06:10:01 51°13.595 2°56.101 19.234 4.926395 33.144619 -0.814958
2005-05-02 06:10:07 51°13.595 2°56.101 19.2322 4.926395 33.14512 -0.781249
2005-05-02 06:10:11 51°13.595 2°56.101 19.2304 4.926289 33.144324 -0.814958
2005-05-02 06:10:17 51°13.595 2°56.101 19.2305 4.926289 33.144324 -0.814958
2005-05-02 06:10:21 51°13.595 2°56.101 19.2318 4.926395 33.145621 -0.814958
2005-05-02 06:10:27 51°13.595 2°56.101 19.2329 4.926289 33.144825 -0.814958
2005-05-02 06:10:31 51°13.595 2°56.101 19.2335 4.926289 33.144825 -0.781249
2005-05-02 06:10:37 51°13.595 2°56.101 19.2351 4.926184 33.145031 -0.814958
2005-05-02 06:10:41 51°13.595 2°56.101 19.2356 4.926079 33.144736 -0.781249
2005-05-02 06:10:46 51°13.595 2°56.101 19.237 4.926079 33.144736 -0.781249
2005-05-02 06:10:51 51°13.595 2°56.101 19.2374 4.926079 33.145237 -0.781249
2005-05-02 06:10:57 51°13.595 2°56.101 19.2382 4.926079 33.145237 -0.814958
2005-05-02 06:11:01 51°13.595 2°56.101 19.2385 4.925973 33.144941 -0.814958
2005-05-02 06:11:07 51°13.595 2°56.101 19.2389 4.925868 33.144646 -0.814958
2005-05-02 06:11:11 51°13.595 2°56.101 19.2397 4.925762 33.144351 -0.781249
2005-05-02 06:11:16 51°13.595 2°56.101 19.2401 4.925762 33.144351 -0.781249
2005-05-02 06:11:21 51°13.595 2°56.101 19.2407 4.925762 33.144852 -0.814958
2005-05-02 06:11:26 51°13.595 2°56.101 19.2405 4.925762 33.145353 -0.814958
2005-05-02 06:11:31 51°13.595 2°56.102 19.2412 4.925657 33.144557 -0.781249
2005-05-02 06:11:36 51°13.595 2°56.101 19.2393 4.925657 33.145058 -0.781249
2005-05-02 06:11:41 51°13.595 2°56.101 19.2397 4.925551 33.144763 -0.74754
2005-05-02 06:11:47 51°13.595 2°56.101 19.2381 4.925551 33.144763 -0.74754
2005-05-02 06:11:51 51°13.595 2°56.101 19.239 4.925551 33.145264 -0.781249
2005-05-02 06:11:57 51°13.595 2°56.101 19.241 4.92534 33.143672 -0.781249
2005-05-02 06:12:01 51°13.594 2°56.101 19.2425 4.925446 33.144969 -0.814958
2005-05-02 06:12:06 51°13.595 2°56.101 19.2425 4.92534 33.145175 -0.814958
2005-05-02 06:12:11 51°13.594 2°56.101 19.2443 4.925235 33.144379 -0.814958
2005-05-02 06:12:17 51°13.594 2°56.101 19.2449 4.925235 33.144379 -0.814958
2005-05-02 06:12:21 51°13.594 2°56.101 19.2452 4.925235 33.14488 -0.814958
2005-05-02 06:12:26 51°13.594 2°56.101 19.247 4.925235 33.14488 -0.781249
2005-05-02 06:12:31 51°13.595 2°56.101 19.2448 4.925129 33.145086 -0.814958
2005-05-02 06:12:36 51°13.595 2°56.101 19.2449 4.925129 33.145086 -0.781249
2005-05-02 06:12:41 51°13.595 2°56.101 19.2461 4.925129 33.145587 -0.814958
2005-05-02 06:12:46 51°13.595 2°56.101 19.2466 4.925129 33.145587 -0.814958
2005-05-02 06:12:51 51°13.595 2°56.101 19.2473 4.925024 33.145292 -0.814958
2005-05-02 06:12:55 51°13.595 2°56.102 19.249 4.924813 33.1442 -0.781249
2005-05-02 06:13:01 51°13.594 2°56.102 19.2497 4.924918 33.145498 -0.781249
2005-05-02 06:13:06 51°13.594 2°56.102 19.2513 4.924918 33.145498 -0.814958
2005-05-02 06:13:11 51°13.594 2°56.102 19.2523 4.924813 33.145704 -0.814958
2005-05-02 06:13:15 51°13.594 2°56.102 19.2521 4.924813 33.145704 -0.814958
2005-05-02 06:13:21 51°13.594 2°56.102 19.2514 4.924707 33.144908 -0.814958
2005-05-02 06:13:26 51°13.594 2°56.102 19.251 4.924707 33.145409 -0.781249
2005-05-02 06:13:31 51°13.595 2°56.102 19.2522 4.924707 33.145409 -0.781249
2005-05-02 06:13:37 51°13.595 2°56.102 19.2539 4.924496 33.144818 -0.814958
2005-05-02 06:13:41 51°13.595 2°56.102 19.2533 4.924496 33.144317 -0.781249
2005-05-02 06:13:47 51°13.595 2°56.102 19.2558 4.924496 33.144317 -0.781249
2005-05-02 06:13:51 51°13.595 2°56.102 19.2578 4.924285 33.144228 -0.814958
2005-05-02 06:13:56 51°13.595 2°56.102 19.2613 4.924285 33.143727 -0.781249
2005-05-02 06:14:01 51°13.595 2°56.102 19.2639 4.924285 33.144729 -0.781249
2005-05-02 06:14:06 51°13.595 2°56.102 19.2642 4.92418 33.144434 -0.781249
2005-05-02 06:14:11 51°13.595 2°56.102 19.2628 4.924074 33.144139 -0.781249
2005-05-02 06:14:17 51°13.594 2°56.102 19.2636 4.924074 33.144139 -0.781249
2005-05-02 06:14:21 51°13.595 2°56.102 19.2632 4.924074 33.144139 -0.814958
2005-05-02 06:14:26 51°13.595 2°56.102 19.2637 4.924074 33.14464 -0.848668
2005-05-02 06:14:31 51°13.595 2°56.102 19.2628 4.923969 33.143844 -0.814958
2005-05-02 06:14:36 51°13.595 2°56.102 19.2609 4.923969 33.144846 -0.848668
2005-05-02 06:14:41 51°13.595 2°56.102 19.2614 4.923863 33.14405 -0.814958
2005-05-02 06:14:46 51°13.595 2°56.102 19.265 4.923863 33.14405 -0.814958
2005-05-02 06:14:51 51°13.595 2°56.102 19.2658 4.923863 33.144551 -0.814958
2005-05-02 06:14:57 51°13.595 2°56.102 19.2664 4.923758 33.144256 -0.781249
2005-05-02 06:15:01 51°13.595 2°56.102 19.264 4.923652 33.143961 -0.781249
2005-05-02 06:15:07 51°13.595 2°56.102 19.2634 4.923652 33.144462 -0.781249
2005-05-02 06:15:11 51°13.594 2°56.102 19.2642 4.923652 33.144964 -0.781249
2005-05-02 06:15:17 51°13.594 2°56.102 19.267 4.923652 33.144964 -0.781249
2005-05-02 06:15:21 51°13.594 2°56.102 19.2688 4.923652 33.144964 -0.781249
2005-05-02 06:15:27 51°13.594 2°56.102 19.2692 4.923441 33.144373 -0.781249
2005-05-02 06:15:31 51°13.595 2°56.102 19.2695 4.923441 33.144373 -0.814958
2005-05-02 06:15:37 51°13.595 2°56.102 19.2717 4.923336 33.143577 -0.848668
2005-05-02 06:15:41 51°13.595 2°56.102 19.2726 4.923336 33.144078 -0.814958
2005-05-02 06:15:47 51°13.595 2°56.103 19.2739 4.923336 33.144078 -0.814958
2005-05-02 06:15:51 51°13.595 2°56.103 19.2756 4.92323 33.144284 -0.781249
2005-05-02 06:15:57 51°13.595 2°56.103 19.273 4.92323 33.143783 -0.814958
2005-05-02 06:16:01 51°13.595 2°56.103 19.2716 4.923125 33.143989 -0.814958
2005-05-02 06:16:07 51°13.595 2°56.103 19.2708 4.923125 33.14449 -0.814958
2005-05-02 06:16:11 51°13.595 2°56.103 19.2693 4.923125 33.14449 -0.814958
2005-05-02 06:16:17 51°13.595 2°56.103 19.2691 4.923125 33.14449 -0.814958
2005-05-02 06:16:21 51°13.595 2°56.103 19.2693 4.923019 33.144195 -0.74754
2005-05-02 06:16:27 51°13.595 2°56.102 19.2677 4.922914 33.1439 -0.814958
2005-05-02 06:16:31 51°13.595 2°56.102 19.2694 4.922914 33.1439 -0.781249
2005-05-02 06:16:36 51°13.595 2°56.102 19.2698 4.922808 33.144106 -0.781249
2005-05-02 06:16:41 51°13.595 2°56.102 19.2704 4.922808 33.144106 -0.781249
2005-05-02 06:16:46 51°13.595 2°56.102 19.2699 4.922808 33.144106 -0.781249
2005-05-02 06:16:51 51°13.595 2°56.102 19.272 4.922703 33.143811 -0.814958
2005-05-02 06:16:57 51°13.595 2°56.102 19.2768 4.922703 33.144313 -0.781249
2005-05-02 06:17:01 51°13.595 2°56.102 19.2792 4.922597 33.144017 -0.814958
2005-05-02 06:17:06 51°13.595 2°56.102 19.2795 4.922492 33.143221 -0.814958
2005-05-02 06:17:11 51°13.595 2°56.102 19.2798 4.922492 33.143722 -0.814958
2005-05-02 06:17:17 51°13.595 2°56.102 19.2821 4.922492 33.143722 -0.814958
2005-05-02 06:17:21 51°13.595 2°56.103 19.2815 4.922492 33.144224 -0.814958
2005-05-02 06:17:26 51°13.595 2°56.103 19.2809 4.922281 33.143132 -0.781249
2005-05-02 06:17:31 51°13.595 2°56.103 19.282 4.922386 33.14443 -0.781249
2005-05-02 06:17:36 51°13.595 2°56.103 19.2823 4.922281 33.144135 -0.814958
2005-05-02 06:17:41 51°13.595 2°56.103 19.2832 4.922281 33.144636 -0.781249
2005-05-02 06:17:46 51°13.595 2°56.103 19.2827 4.922281 33.144636 -0.781249
2005-05-02 06:17:51 51°13.595 2°56.103 19.285 4.922175 33.143839 -0.814958
2005-05-02 06:17:56 51°13.595 2°56.103 19.2888 4.92207 33.143544 -0.781249
2005-05-02 06:18:01 51°13.595 2°56.103 19.2901 4.921964 33.143249 -0.814958
2005-05-02 06:18:07 51°13.595 2°56.103 19.2902 4.921964 33.143249 -0.781249
2005-05-02 06:18:11 51°13.595 2°56.103 19.2929 4.921964 33.144252 -0.781249
2005-05-02 06:18:16 51°13.595 2°56.103 19.2957 4.921964 33.144252 -0.781249
2005-05-02 06:18:21 51°13.595 2°56.103 19.2976 4.921859 33.143455 -0.848668
2005-05-02 06:18:27 51°13.595 2°56.103 19.3009 4.921859 33.143957 -0.781249
2005-05-02 06:18:31 51°13.595 2°56.103 19.3 4.921753 33.143662 -0.814958
2005-05-02 06:18:36 51°13.595 2°56.103 19.3 4.921753 33.144163 -0.781249
2005-05-02 06:18:41 51°13.595 2°56.103 19.2984 4.921753 33.144163 -0.781249
2005-05-02 06:18:46 51°13.595 2°56.103 19.2987 4.921753 33.144163 -0.781249
2005-05-02 06:18:52 51°13.595 2°56.103 19.3002 4.921542 33.143071 -0.781249
2005-05-02 06:18:56 51°13.595 2°56.103 19.2976 4.921542 33.143573 -0.781249
2005-05-02 06:19:01 51°13.595 2°56.103 19.3035 4.921542 33.144075 -0.814958
2005-05-02 06:19:06 51°13.595 2°56.103 19.3058 4.921437 33.143779 -0.814958
2005-05-02 06:19:11 51°13.595 2°56.103 19.3035 4.921437 33.144281 -0.814958
2005-05-02 06:19:16 51°13.595 2°56.103 19.3007 4.921437 33.144281 -0.814958
2005-05-02 06:19:21 51°13.595 2°56.103 19.3027 4.921331 33.143484 -0.814958
2005-05-02 06:19:26 51°13.595 2°56.103 19.3018 4.921226 33.142687 -0.781249
2005-05-02 06:19:31 51°13.595 2°56.103 19.3015 4.921226 33.14369 -0.781249
2005-05-02 06:19:36 51°13.595 2°56.103 19.3022 4.92112 33.142894 -0.814958
2005-05-02 06:19:41 51°13.595 2°56.103 19.3029 4.921015 33.1431 -0.781249
2005-05-02 06:19:46 51°13.595 2°56.103 19.3016 4.921015 33.1431 -0.781249
2005-05-02 06:19:51 51°13.596 2°56.103 19.3006 4.921015 33.1431 -0.781249
2005-05-02 06:19:57 51°13.595 2°56.103 19.3004 4.921015 33.143602 -0.814958
2005-05-02 06:20:01 51°13.595 2°56.103 19.2997 4.920909 33.143306 -0.814958
2005-05-02 06:20:07 51°13.595 2°56.103 19.3021 4.920909 33.143808 -0.814958
2005-05-02 06:20:11 51°13.595 2°56.103 19.3018 4.920804 33.143011 -0.814958
2005-05-02 06:20:16 51°13.595 2°56.103 19.301 4.920804 33.143011 -0.814958
2005-05-02 06:20:21 51°13.595 2°56.103 19.3009 4.920698 33.143218 -0.814958
2005-05-02 06:20:26 51°13.595 2°56.103 19.3005 4.920698 33.143218 -0.781249
2005-05-02 06:20:31 51°13.595 2°56.103 19.3006 4.920698 33.143719 -0.814958
2005-05-02 06:20:36 51°13.595 2°56.103 19.302 4.920487 33.142627 -0.814958
2005-05-02 06:20:41 51°13.595 2°56.103 19.3045 4.920593 33.143926 -0.814958
2005-05-02 06:20:47 51°13.596 2°56.103 19.3064 4.920593 33.143926 -0.814958
2005-05-02 06:20:51 51°13.596 2°56.103 19.3101 4.920488 33.143631 -0.781249
2005-05-02 06:20:57 51°13.595 2°56.103 19.3119 4.920382 33.142834 -0.814958
2005-05-02 06:21:01 51°13.595 2°56.103 19.3132 4.920382 33.143837 -0.814958
2005-05-02 06:21:06 51°13.595 2°56.103 19.3112 4.920171 33.142243 -0.814958
2005-05-02 06:21:11 51°13.595 2°56.103 19.3104 4.920171 33.142243 -0.814958
2005-05-02 06:21:16 51°13.595 2°56.103 19.3121 4.920171 33.142243 -0.814958
2005-05-02 06:21:21 51°13.595 2°56.103 19.3159 4.920066 33.14245 -0.781249
2005-05-02 06:21:26 51°13.595 2°56.103 19.3181 4.920066 33.14245 -0.781249
2005-05-02 06:21:31 51°13.595 2°56.103 19.3243 4.920066 33.142951 -0.781249
2005-05-02 06:21:37 51°13.595 2°56.103 19.3332 4.91996 33.142656 -0.781249
2005-05-02 06:21:41 51°13.595 2°56.103 19.3355 4.91996 33.143158 -0.781249
2005-05-02 06:21:46 51°13.595 2°56.103 19.3348 4.91996 33.143158 -0.781249
2005-05-02 06:21:51 51°13.595 2°56.103 19.3322 4.91996 33.143158 -0.781249
2005-05-02 06:21:56 51°13.595 2°56.103 19.3308 4.919749 33.142567 -0.814958
2005-05-02 06:22:01 51°13.595 2°56.103 19.3252 4.919749 33.142567 -0.781249
2005-05-02 06:22:07 51°13.595 2°56.103 19.3237 4.919749 33.143069 -0.781249
2005-05-02 06:22:11 51°13.595 2°56.103 19.3214 4.919749 33.143069 -0.781249
2005-05-02 06:22:16 51°13.595 2°56.103 19.3218 4.919749 33.143069 -0.781249
2005-05-02 06:22:21 51°13.595 2°56.103 19.3229 4.919749 33.143571 -0.814958
2005-05-02 06:22:27 51°13.595 2°56.103 19.3273 4.919644 33.143778 -0.781249
2005-05-02 06:22:31 51°13.595 2°56.103 19.33 4.919433 33.142685 -0.814958
2005-05-02 06:22:36 51°13.595 2°56.103 19.3333 4.919433 33.143187 -0.781249
2005-05-02 06:22:41 51°13.595 2°56.103 19.337 4.919433 33.143689 -0.814958
2005-05-02 06:22:46 51°13.595 2°56.103 19.3383 4.919433 33.143689 -0.814958
2005-05-02 06:22:51 51°13.595 2°56.103 19.3371 4.919327 33.142892 -0.781249
2005-05-02 06:22:56 51°13.595 2°56.103 19.3373 4.919327 33.143896 -0.781249
2005-05-02 06:23:01 51°13.595 2°56.103 19.3366 4.919327 33.143896 -0.814958
2005-05-02 06:23:07 51°13.595 2°56.103 19.3359 4.919222 33.143601 -0.814958
2005-05-02 06:23:11 51°13.595 2°56.103 19.3343 4.919222 33.144103 -0.814958
2005-05-02 06:23:16 51°13.595 2°56.103 19.3356 4.919222 33.144103 -0.814958
2005-05-02 06:23:21 51°13.595 2°56.103 19.3318 4.919011 33.142508 -0.814958
2005-05-02 06:23:25 51°13.596 2°56.103 19.3299 4.919011 33.143512 -0.814958
2005-05-02 06:23:32 51°13.596 2°56.103 19.3294 4.919011 33.144014 -0.814958
2005-05-02 06:23:36 51°13.595 2°56.103 19.3306 4.919011 33.144014 -0.814958
2005-05-02 06:23:41 51°13.596 2°56.103 19.3324 4.918905 33.143719 -0.781249
2005-05-02 06:23:46 51°13.596 2°56.103 19.3355 4.918905 33.143719 -0.781249
2005-05-02 06:23:51 51°13.595 2°56.103 19.3362 4.9188 33.143423 -0.814958
2005-05-02 06:23:56 51°13.595 2°56.103 19.3369 4.9188 33.143925 -0.781249
2005-05-02 06:24:01 51°13.595 2°56.103 19.3409 4.918589 33.143335 -0.781249
2005-05-02 06:24:07 51°13.595 2°56.103 19.3399 4.918483 33.142538 -0.848668
2005-05-02 06:24:11 51°13.595 2°56.103 19.3379 4.918483 33.14304 -0.781249
2005-05-02 06:24:16 51°13.595 2°56.103 19.3385 4.918483 33.14304 -0.781249
2005-05-02 06:24:21 51°13.595 2°56.103 19.3389 4.918483 33.143542 -0.814958
2005-05-02 06:24:26 51°13.595 2°56.103 19.3405 4.918378 33.143246 -0.781249
2005-05-02 06:24:31 51°13.595 2°56.103 19.3441 4.918378 33.143246 -0.781249
2005-05-02 06:24:36 51°13.595 2°56.103 19.347 4.918378 33.143748 -0.781249
2005-05-02 06:24:41 51°13.595 2°56.103 19.3473 4.918167 33.14366 -0.781249
2005-05-02 06:24:47 51°13.595 2°56.103 19.3501 4.918167 33.14366 -0.781249
2005-05-02 06:24:51 51°13.595 2°56.103 19.3497 4.918167 33.14366 -0.781249
2005-05-02 06:24:56 51°13.595 2°56.103 19.3502 4.918272 33.144457 -0.781249
2005-05-02 06:25:01 51°13.595 2°56.103 19.3493 4.918061 33.143867 -0.814958
2005-05-02 06:25:07 51°13.595 2°56.103 19.3506 4.917956 33.143572 -0.781249
2005-05-02 06:25:11 51°13.595 2°56.103 19.3524 4.917956 33.144074 -0.781249
2005-05-02 06:25:16 51°13.595 2°56.103 19.352 4.917956 33.144074 -0.781249
2005-05-02 06:25:21 51°13.595 2°56.103 19.3525 4.91785 33.143778 -0.74754
2005-05-02 06:25:27 51°13.595 2°56.103 19.3511 4.917745 33.142479 -0.781249
2005-05-02 06:25:31 51°13.595 2°56.103 19.3468 4.917745 33.143483 -0.781249
2005-05-02 06:25:36 51°13.595 2°56.103 19.3475 4.917745 33.143483 -0.781249
2005-05-02 06:25:41 51°13.595 2°56.103 19.3487 4.917745 33.144487 -0.814958
2005-05-02 06:25:47 51°13.595 2°56.103 19.3499 4.917745 33.144487 -0.814958
2005-05-02 06:25:51 51°13.594 2°56.103 19.3525 4.917534 33.142892 -0.781249
2005-05-02 06:25:56 51°13.594 2°56.103 19.3559 4.917428 33.143099 -0.781249
2005-05-02 06:26:01 51°13.594 2°56.103 19.3584 4.917428 33.143602 -0.781249
2005-05-02 06:26:06 51°13.595 2°56.103 19.3598 4.917323 33.143306 -0.814958
2005-05-02 06:26:12 51°13.595 2°56.103 19.3593 4.917323 33.143306 -0.848668
2005-05-02 06:26:16 51°13.595 2°56.103 19.3587 4.917323 33.143306 -0.848668
2005-05-02 06:26:21 51°13.595 2°56.103 19.3592 4.917217 33.143011 -0.781249
2005-05-02 06:26:26 51°13.595 2°56.103 19.361 4.917217 33.143011 -0.814958
2005-05-02 06:26:31 51°13.595 2°56.103 19.3597 4.917112 33.143218 -0.781249
2005-05-02 06:26:37 51°13.595 2°56.103 19.3619 4.917112 33.143218 -0.814958
2005-05-02 06:26:41 51°13.595 2°56.103 19.363 4.917006 33.143425 -0.814958
2005-05-02 06:26:47 51°13.595 2°56.103 19.3632 4.917006 33.143425 -0.814958
2005-05-02 06:26:51 51°13.594 2°56.103 19.3666 4.917006 33.143927 -0.781249
2005-05-02 06:26:56 51°13.594 2°56.103 19.3683 4.916901 33.143632 -0.814958
2005-05-02 06:27:01 51°13.594 2°56.103 19.368 4.916795 33.143336 -0.814958
2005-05-02 06:27:07 51°13.594 2°56.103 19.3695 4.916795 33.143336 -0.814958
2005-05-02 06:27:11 51°13.595 2°56.103 19.3715 4.916795 33.143839 -0.814958
2005-05-02 06:27:16 51°13.595 2°56.103 19.3719 4.916795 33.143839 -0.814958
2005-05-02 06:27:21 51°13.595 2°56.103 19.3701 4.91669 33.143543 -0.781249
2005-05-02 06:27:27 51°13.595 2°56.103 19.3706 4.916584 33.143248 -0.781249
2005-05-02 06:27:31 51°13.595 2°56.103 19.3712 4.916479 33.14245 -0.74754
2005-05-02 06:27:36 51°13.595 2°56.103 19.3699 4.916373 33.142657 -0.781249
2005-05-02 06:27:41 51°13.595 2°56.103 19.3697 4.916373 33.142657 -0.814958
2005-05-02 06:27:47 51°13.595 2°56.104 19.3683 4.916373 33.142657 -0.814958
2005-05-02 06:27:51 51°13.595 2°56.104 19.3674 4.916268 33.142362 -0.814958
2005-05-02 06:27:56 51°13.595 2°56.104 19.3684 4.916268 33.142864 -0.814958
2005-05-02 06:28:01 51°13.595 2°56.104 19.3685 4.916162 33.142569 -0.814958
2005-05-02 06:28:06 51°13.595 2°56.104 19.3668 4.916162 33.142569 -0.781249
2005-05-02 06:28:11 51°13.596 2°56.104 19.3653 4.916057 33.142776 -0.814958
2005-05-02 06:28:17 51°13.596 2°56.104 19.3654 4.916057 33.142776 -0.814958
2005-05-02 06:28:21 51°13.596 2°56.104 19.3635 4.915951 33.141978 -0.781249
2005-05-02 06:28:26 51°13.596 2°56.104 19.3637 4.916057 33.143279 -0.781249
2005-05-02 06:28:31 51°13.596 2°56.104 19.3617 4.915951 33.143486 -0.814958
2005-05-02 06:28:37 51°13.596 2°56.104 19.3626 4.91574 33.142393 -0.814958
2005-05-02 06:28:41 51°13.596 2°56.104 19.3633 4.91574 33.142393 -0.814958
2005-05-02 06:28:47 51°13.596 2°56.104 19.3648 4.91574 33.142393 -0.814958
2005-05-02 06:28:51 51°13.596 2°56.104 19.3644 4.91574 33.142393 -0.814958
2005-05-02 06:28:57 51°13.596 2°56.104 19.3637 4.915635 33.1426 -0.781249
2005-05-02 06:29:01 51°13.596 2°56.104 19.3628 4.915529 33.141802 -0.781249
2005-05-02 06:29:07 51°13.596 2°56.104 19.365 4.915424 33.142009 -0.814958
2005-05-02 06:29:11 51°13.595 2°56.104 19.3676 4.915529 33.142807 -0.814958
2005-05-02 06:29:17 51°13.596 2°56.104 19.3691 4.915529 33.142807 -0.814958
2005-05-02 06:29:21 51°13.596 2°56.104 19.3687 4.915318 33.142216 -0.781249
2005-05-02 06:29:27 51°13.596 2°56.104 19.3669 4.915318 33.142718 -0.814958
2005-05-02 06:29:31 51°13.596 2°56.104 19.3675 4.915319 33.143221 -0.781249
2005-05-02 06:29:35 51°13.596 2°56.104 19.3712 4.915213 33.142423 -0.781249
2005-05-02 06:29:41 51°13.596 2°56.104 19.371 4.915213 33.142926 -0.814958
2005-05-02 06:29:47 51°13.596 2°56.104 19.3711 4.915213 33.142926 -0.814958
2005-05-02 06:29:51 51°13.596 2°56.104 19.3738 4.915108 33.14263 -0.814958
2005-05-02 06:29:55 51°13.595 2°56.104 19.3733 4.915002 33.142335 -0.814958
2005-05-02 06:30:01 51°13.595 2°56.104 19.3731 4.914897 33.14204 -0.814958
2005-05-02 06:30:07 51°13.595 2°56.104 19.3726 4.914897 33.142542 -0.781249
2005-05-02 06:30:11 51°13.595 2°56.104 19.3697 4.914897 33.143547 -0.814958
2005-05-02 06:30:17 51°13.595 2°56.104 19.3674 4.914897 33.143547 -0.814958
2005-05-02 06:30:21 51°13.595 2°56.104 19.3707 4.914897 33.143547 -0.781249
2005-05-02 06:30:27 51°13.595 2°56.103 19.3727 4.914686 33.142454 -0.814958
2005-05-02 06:30:31 51°13.595 2°56.103 19.3736 4.914686 33.142454 -0.74754
2005-05-02 06:30:37 51°13.595 2°56.103 19.3753 4.91458 33.142661 -0.814958
2005-05-02 06:30:41 51°13.595 2°56.103 19.3737 4.914369 33.141568 -0.814958
2005-05-02 06:30:46 51°13.595 2°56.104 19.3721 4.914369 33.141568 -0.814958
2005-05-02 06:30:51 51°13.595 2°56.104 19.3726 4.91458 33.143164 -0.814958
2005-05-02 06:30:56 51°13.595 2°56.104 19.376 4.914369 33.142573 -0.814958
2005-05-02 06:31:01 51°13.595 2°56.104 19.3784 4.914369 33.143076 -0.781249
2005-05-02 06:31:05 51°13.595 2°56.104 19.3814 4.914264 33.142278 -0.814958
2005-05-02 06:31:11 51°13.595 2°56.104 19.3874 4.914264 33.143283 -0.814958
2005-05-02 06:31:17 51°13.595 2°56.104 19.3963 4.914264 33.143283 -0.814958
2005-05-02 06:31:21 51°13.595 2°56.104 19.3942 4.914158 33.142485 -0.814958
2005-05-02 06:31:27 51°13.595 2°56.104 19.3969 4.914053 33.141687 -0.814958
2005-05-02 06:31:31 51°13.595 2°56.103 19.3974 4.914053 33.142692 -0.781249
2005-05-02 06:31:36 51°13.595 2°56.103 19.3979 4.913842 33.142101 -0.781249
2005-05-02 06:31:41 51°13.595 2°56.103 19.3965 4.913842 33.142604 -0.814958
2005-05-02 06:31:46 51°13.595 2°56.103 19.4014 4.913842 33.142604 -0.814958
2005-05-02 06:31:51 51°13.595 2°56.103 19.4042 4.913947 33.143905 -0.814958
2005-05-02 06:31:56 51°13.595 2°56.103 19.4059 4.913842 33.143107 -0.814958
2005-05-02 06:32:01 51°13.595 2°56.103 19.4044 4.913736 33.142811 -0.814958
2005-05-02 06:32:06 51°13.595 2°56.103 19.4084 4.913631 33.143019 -0.814958
2005-05-02 06:32:11 51°13.595 2°56.103 19.41 4.913631 33.143019 -0.814958
2005-05-02 06:32:16 51°13.595 2°56.103 19.4127 4.913631 33.143019 -0.814958
2005-05-02 06:32:21 51°13.595 2°56.103 19.4172 4.913525 33.142723 -0.814958
2005-05-02 06:32:27 51°13.595 2°56.103 19.4166 4.913525 33.143226 -0.814958
2005-05-02 06:32:32 51°13.595 2°56.103 19.4136 4.913314 33.142133 -0.781249
2005-05-02 06:32:37 51°13.595 2°56.103 19.407 4.913314 33.142635 -0.781249
2005-05-02 06:32:41 51°13.595 2°56.103 19.3894 4.913314 33.143138 -0.814958
2005-05-02 06:32:46 51°13.595 2°56.102 19.3919 4.913314 33.143138 -0.814958
2005-05-02 06:32:51 51°13.595 2°56.103 19.3962 4.913209 33.142843 -0.814958
2005-05-02 06:32:56 51°13.595 2°56.103 19.3984 4.913103 33.14305 -0.814958
2005-05-02 06:33:01 51°13.594 2°56.103 19.4027 4.913103 33.143553 -0.814958
2005-05-02 06:33:06 51°13.594 2°56.103 19.4025 4.912892 33.141957 -0.814958
2005-05-02 06:33:11 51°13.594 2°56.103 19.4078 4.912892 33.142459 -0.814958
2005-05-02 06:33:15 51°13.594 2°56.103 19.4094 4.912892 33.142459 -0.814958
2005-05-02 06:33:21 51°13.594 2°56.103 19.4104 4.912787 33.142164 -0.814958
2005-05-02 06:33:26 51°13.594 2°56.103 19.4105 4.912892 33.142962 -0.781249
2005-05-02 06:33:31 51°13.594 2°56.103 19.4113 4.912787 33.143673 -0.814958
2005-05-02 06:33:35 51°13.594 2°56.103 19.412 4.912576 33.142076 -0.74754
2005-05-02 06:33:41 51°13.594 2°56.103 19.4097 4.912576 33.142579 -0.781249
2005-05-02 06:33:47 51°13.594 2°56.103 19.4091 4.912576 33.142579 -0.781249
2005-05-02 06:33:51 51°13.594 2°56.103 19.4127 4.91247 33.141781 -0.781249
2005-05-02 06:33:56 51°13.594 2°56.103 19.4107 4.91247 33.143289 -0.781249
2005-05-02 06:34:01 51°13.594 2°56.103 19.4093 4.91247 33.143289 -0.814958
2005-05-02 06:34:07 51°13.594 2°56.103 19.4038 4.912365 33.142994 -0.814958
2005-05-02 06:34:11 51°13.594 2°56.103 19.4006 4.912154 33.1419 -0.814958
2005-05-02 06:34:17 51°13.594 2°56.103 19.4014 4.912154 33.1419 -0.814958
2005-05-02 06:34:21 51°13.594 2°56.103 19.4109 4.912259 33.143201 -0.814958
2005-05-02 06:34:26 51°13.594 2°56.103 19.414 4.912048 33.141605 -0.781249
2005-05-02 06:34:31 51°13.594 2°56.103 19.4146 4.911943 33.142315 -0.781249
2005-05-02 06:34:37 51°13.594 2°56.103 19.4132 4.911943 33.141812 -0.781249
2005-05-02 06:34:41 51°13.594 2°56.103 19.4139 4.911837 33.14202 -0.781249
2005-05-02 06:34:47 51°13.594 2°56.103 19.4142 4.911837 33.14202 -0.781249
2005-05-02 06:34:51 51°13.594 2°56.103 19.4164 4.911837 33.142523 -0.781249
2005-05-02 06:34:57 51°13.594 2°56.103 19.4149 4.911732 33.142227 -0.781249
2005-05-02 06:35:01 51°13.594 2°56.103 19.4176 4.911732 33.14273 -0.814958
2005-05-02 06:35:07 51°13.594 2°56.103 19.4192 4.911732 33.143233 -0.814958
2005-05-02 06:35:11 51°13.594 2°56.103 19.4196 4.911521 33.14214 -0.814958
2005-05-02 06:35:17 51°13.594 2°56.103 19.4221 4.911521 33.14214 -0.814958
2005-05-02 06:35:21 51°13.594 2°56.102 19.4207 4.911521 33.14214 -0.814958
2005-05-02 06:35:26 51°13.594 2°56.102 19.4225 4.911521 33.143146 -0.814958
2005-05-02 06:35:31 51°13.594 2°56.102 19.4253 4.911415 33.142347 -0.814958
2005-05-02 06:35:36 51°13.594 2°56.102 19.4261 4.911204 33.141253 -0.814958
2005-05-02 06:35:41 51°13.594 2°56.102 19.4276 4.911099 33.141461 -0.814958
2005-05-02 06:35:46 51°13.594 2°56.102 19.4265 4.911099 33.141461 -0.814958
2005-05-02 06:35:51 51°13.594 2°56.102 19.4273 4.911099 33.141964 -0.781249
2005-05-02 06:35:56 51°13.594 2°56.102 19.4235 4.911099 33.142467 -0.781249
2005-05-02 06:36:01 51°13.594 2°56.102 19.4168 4.910993 33.141668 -0.814958
2005-05-02 06:36:06 51°13.594 2°56.102 19.4222 4.910888 33.141373 -0.781249
2005-05-02 06:36:12 51°13.594 2°56.102 19.4257 4.910782 33.141581 -0.781249
2005-05-02 06:36:16 51°13.594 2°56.102 19.4265 4.910782 33.141581 -0.781249
2005-05-02 06:36:21 51°13.594 2°56.102 19.4285 4.910782 33.142084 -0.781249
2005-05-02 06:36:27 51°13.595 2°56.102 19.4283 4.910782 33.142587 -0.781249
2005-05-02 06:36:31 51°13.595 2°56.102 19.4289 4.910677 33.142291 -0.814958
2005-05-02 06:36:35 51°13.595 2°56.102 19.427 4.910571 33.141996 -0.814958
2005-05-02 06:36:41 51°13.595 2°56.103 19.4266 4.910571 33.141996 -0.781249
2005-05-02 06:36:47 51°13.595 2°56.103 19.4254 4.910571 33.141996 -0.781249
2005-05-02 06:36:51 51°13.595 2°56.103 19.4292 4.910466 33.142204 -0.781249
2005-05-02 06:36:55 51°13.595 2°56.103 19.4305 4.910466 33.142707 -0.814958
2005-05-02 06:37:01 51°13.595 2°56.103 19.4321 4.910255 33.141613 -0.781249
2005-05-02 06:37:07 51°13.595 2°56.102 19.434 4.910255 33.142116 -0.781249
2005-05-02 06:37:11 51°13.595 2°56.102 19.4355 4.910044 33.141022 -0.781249
2005-05-02 06:37:16 51°13.595 2°56.102 19.4357 4.910044 33.141022 -0.781249
2005-05-02 06:37:21 51°13.595 2°56.102 19.4373 4.91015 33.142827 -0.814958
2005-05-02 06:37:26 51°13.595 2°56.102 19.4377 4.909939 33.14123 -0.74754
2005-05-02 06:37:31 51°13.595 2°56.102 19.4399 4.909939 33.141733 -0.781249
2005-05-02 06:37:35 51°13.595 2°56.102 19.4426 4.909833 33.141941 -0.814958
2005-05-02 06:37:41 51°13.595 2°56.102 19.4444 4.909728 33.141142 -0.781249
2005-05-02 06:37:46 51°13.595 2°56.102 19.446 4.909728 33.141142 -0.781249
2005-05-02 06:37:51 51°13.595 2°56.102 19.4465 4.909728 33.142148 -0.781249
2005-05-02 06:37:57 51°13.595 2°56.102 19.4506 4.909622 33.14135 -0.781249
2005-05-02 06:38:01 51°13.595 2°56.102 19.4529 4.909517 33.141558 -0.814958
2005-05-02 06:38:06 51°13.595 2°56.102 19.456 4.909517 33.142061 -0.814958
2005-05-02 06:38:12 51°13.595 2°56.102 19.4561 4.909411 33.142269 -0.781249
2005-05-02 06:38:17 51°13.595 2°56.102 19.4579 4.909411 33.142269 -0.781249
2005-05-02 06:38:21 51°13.595 2°56.102 19.4593 4.909411 33.142772 -0.814958
2005-05-02 06:38:27 51°13.595 2°56.102 19.4579 4.909306 33.14147 -0.781249
2005-05-02 06:38:31 51°13.595 2°56.102 19.4591 4.9092 33.141678 -0.781249
2005-05-02 06:38:36 51°13.595 2°56.102 19.4605 4.9092 33.142684 -0.781249
2005-05-02 06:38:41 51°13.595 2°56.102 19.4586 4.908989 33.14159 -0.781249
2005-05-02 06:38:47 51°13.595 2°56.102 19.4545 4.908989 33.14159 -0.781249
2005-05-02 06:38:51 51°13.595 2°56.102 19.4496 4.909095 33.142892 -0.781249
2005-05-02 06:38:57 51°13.595 2°56.102 19.4488 4.908989 33.142597 -0.781249
2005-05-02 06:39:01 51°13.595 2°56.102 19.4487 4.908778 33.140999 -0.814958
2005-05-02 06:39:06 51°13.596 2°56.102 19.4492 4.908778 33.142006 -0.781249
2005-05-02 06:39:11 51°13.596 2°56.102 19.4531 4.908673 33.141207 -0.814958
2005-05-02 06:39:16 51°13.596 2°56.101 19.454 4.908673 33.141207 -0.814958
2005-05-02 06:39:21 51°13.596 2°56.101 19.4565 4.908673 33.142214 -0.781249
2005-05-02 06:39:27 51°13.596 2°56.101 19.4536 4.908462 33.14112 -0.814958
2005-05-02 06:39:31 51°13.596 2°56.101 19.4534 4.908356 33.141327 -0.814958
2005-05-02 06:39:37 51°13.596 2°56.101 19.4549 4.908356 33.141327 -0.781249
2005-05-02 06:39:41 51°13.596 2°56.101 19.4585 4.908251 33.141535 -0.781249
2005-05-02 06:39:46 51°13.596 2°56.101 19.4579 4.908251 33.141535 -0.781249
2005-05-02 06:39:51 51°13.596 2°56.101 19.455 4.908251 33.142039 -0.814958
2005-05-02 06:39:57 51°13.596 2°56.101 19.4565 4.908251 33.142039 -0.814958
2005-05-02 06:40:01 51°13.596 2°56.101 19.4557 4.908145 33.141743 -0.814958
2005-05-02 06:40:06 51°13.596 2°56.101 19.4563 4.90804 33.141951 -0.814958
2005-05-02 06:40:11 51°13.596 2°56.1 19.4559 4.907934 33.141656 -0.814958
2005-05-02 06:40:16 51°13.596 2°56.1 19.4515 4.907934 33.141656 -0.814958
2005-05-02 06:40:21 51°13.596 2°56.1 19.4513 4.907934 33.142159 -0.781249
2005-05-02 06:40:27 51°13.596 2°56.1 19.456 4.907829 33.142367 -0.781249
2005-05-02 06:40:31 51°13.596 2°56.1 19.4584 4.907829 33.142367 -0.781249
2005-05-02 06:40:36 51°13.596 2°56.1 19.4582 4.907618 33.141273 -0.781249
2005-05-02 06:40:41 51°13.596 2°56.1 19.4596 4.907512 33.140978 -0.814958
2005-05-02 06:40:46 51°13.596 2°56.1 19.4598 4.907512 33.140978 -0.814958
2005-05-02 06:40:51 51°13.596 2°56.101 19.4583 4.907512 33.141481 -0.781249
2005-05-02 06:40:57 51°13.596 2°56.101 19.4623 4.907407 33.141689 -0.781249
2005-05-02 06:41:01 51°13.596 2°56.101 19.4435 4.907407 33.141689 -0.781249
2005-05-02 06:41:07 51°13.596 2°56.101 19.4351 4.907196 33.140595 -0.781249
2005-05-02 06:41:11 51°13.596 2°56.101 19.4689 4.907301 33.142401 -0.781249
2005-05-02 06:41:17 51°13.596 2°56.101 19.4638 4.907301 33.142401 -0.781249
2005-05-02 06:41:21 51°13.596 2°56.101 19.4586 4.90709 33.141306 -0.814958
2005-05-02 06:41:27 51°13.596 2°56.101 19.4659 4.90709 33.141306 -0.814958
2005-05-02 06:41:31 51°13.596 2°56.101 19.4679 4.906879 33.140212 -0.781249
2005-05-02 06:41:36 51°13.596 2°56.101 19.4658 4.906879 33.141219 -0.814958
2005-05-02 06:41:41 51°13.596 2°56.101 19.4652 4.906774 33.140923 -0.814958
2005-05-02 06:41:47 51°13.595 2°56.101 19.4658 4.906774 33.140923 -0.814958
2005-05-02 06:41:51 51°13.596 2°56.101 19.4655 4.906774 33.141427 -0.781249
2005-05-02 06:41:57 51°13.596 2°56.101 19.4671 4.906668 33.141131 -0.781249
2005-05-02 06:42:02 51°13.595 2°56.101 19.4681 4.906563 33.14134 -0.814958
2005-05-02 06:42:06 51°13.595 2°56.101 19.4663 4.906352 33.139741 -0.781249
2005-05-02 06:42:11 51°13.595 2°56.101 19.4652 4.906352 33.140245 -0.781249
2005-05-02 06:42:17 51°13.595 2°56.101 19.4654 4.906352 33.140245 -0.781249
2005-05-02 06:42:21 51°13.595 2°56.101 19.4651 4.906457 33.141548 -0.781249
2005-05-02 06:42:27 51°13.595 2°56.101 19.4634 4.906246 33.140957 -0.781249
2005-05-02 06:42:31 51°13.595 2°56.101 19.4633 4.906246 33.14146 -0.781249
2005-05-02 06:42:37 51°13.595 2°56.101 19.4642 4.906035 33.139862 -0.814958
2005-05-02 06:42:41 51°13.595 2°56.101 19.4643 4.906035 33.140869 -0.814958
2005-05-02 06:42:46 51°13.595 2°56.101 19.465 4.906035 33.140869 -0.814958
2005-05-02 06:42:51 51°13.595 2°56.101 19.4661 4.90593 33.140574 -0.814958
2005-05-02 06:42:56 51°13.595 2°56.101 19.4705 4.90593 33.141078 -0.814958
2005-05-02 06:43:02 51°13.595 2°56.101 19.4749 4.905824 33.140782 -0.781249
2005-05-02 06:43:06 51°13.595 2°56.101 19.4813 4.905719 33.140487 -0.781249
2005-05-02 06:43:11 51°13.595 2°56.101 19.484 4.905613 33.140695 -0.781249
2005-05-02 06:43:17 51°13.594 2°56.102 19.4849 4.905613 33.140695 -0.781249
2005-05-02 06:43:22 51°13.593 2°56.102 19.4835 4.905613 33.140695 -0.814958
2005-05-02 06:43:26 51°13.593 2°56.102 19.4853 4.905508 33.140903 -0.814958
2005-05-02 06:43:31 51°13.593 2°56.102 19.485 4.905402 33.140104 -0.848668
2005-05-02 06:43:37 51°13.593 2°56.102 19.4846 4.905297 33.139808 -0.814958
2005-05-02 06:43:41 51°13.593 2°56.102 19.484 4.905297 33.140312 -0.781249
2005-05-02 06:43:47 51°13.593 2°56.102 19.4856 4.905297 33.140312 -0.781249
2005-05-02 06:43:51 51°13.593 2°56.102 19.4867 4.905191 33.14052 -0.781249
2005-05-02 06:43:57 51°13.594 2°56.102 19.4884 4.905086 33.140225 -0.814958
2005-05-02 06:44:01 51°13.594 2°56.102 19.4893 4.905086 33.140729 -0.814958
2005-05-02 06:44:06 51°13.594 2°56.102 19.4907 4.904875 33.139634 -0.781249
2005-05-02 06:44:11 51°13.594 2°56.102 19.4916 4.904875 33.140138 -0.814958
2005-05-02 06:44:16 51°13.594 2°56.102 19.4904 4.904875 33.140138 -0.814958
2005-05-02 06:44:21 51°13.594 2°56.102 19.4926 4.904875 33.140641 -0.781249
2005-05-02 06:44:26 51°13.594 2°56.102 19.4926 4.90477 33.139842 -0.74754
2005-05-02 06:44:31 51°13.594 2°56.102 19.4939 4.904559 33.139755 -0.781249
2005-05-02 06:44:37 51°13.595 2°56.102 19.4937 4.904559 33.139755 -0.781249
2005-05-02 06:44:41 51°13.595 2°56.103 19.4951 4.904559 33.140259 -0.781249
2005-05-02 06:44:46 51°13.595 2°56.103 19.4941 4.904559 33.140259 -0.781249
2005-05-02 06:44:51 51°13.595 2°56.103 19.4963 4.904348 33.139668 -0.781249
2005-05-02 06:44:57 51°13.595 2°56.103 19.4947 4.904348 33.139668 -0.781249
2005-05-02 06:45:01 51°13.595 2°56.103 19.4942 4.904242 33.139372 -0.814958
2005-05-02 06:45:07 51°13.595 2°56.103 19.4954 4.904137 33.139581 -0.781249
2005-05-02 06:45:11 51°13.595 2°56.103 19.496 4.904242 33.140884 -0.814958
2005-05-02 06:45:17 51°13.595 2°56.103 19.4957 4.904242 33.140884 -0.814958
2005-05-02 06:45:21 51°13.595 2°56.103 19.4966 4.903926 33.138989 -0.814958
2005-05-02 06:45:27 51°13.595 2°56.103 19.4984 4.903926 33.139493 -0.781249
2005-05-02 06:45:31 51°13.596 2°56.103 19.4989 4.903926 33.139997 -0.781249
2005-05-02 06:45:36 51°13.596 2°56.103 19.5008 4.90382 33.139702 -0.781249
2005-05-02 06:45:41 51°13.596 2°56.103 19.4997 4.903715 33.139406 -0.781249
2005-05-02 06:45:47 51°13.595 2°56.102 19.5017 4.903715 33.139406 -0.781249
2005-05-02 06:45:51 51°13.595 2°56.102 19.5015 4.903609 33.139111 -0.814958
2005-05-02 06:45:56 51°13.595 2°56.102 19.5027 4.903715 33.13991 -0.814958
2005-05-02 06:46:01 51°13.595 2°56.102 19.503 4.903609 33.140119 -0.814958
2005-05-02 06:46:07 51°13.595 2°56.102 19.505 4.903398 33.139024 -0.814958
2005-05-02 06:46:12 51°13.595 2°56.103 19.5068 4.903398 33.139528 -0.814958
2005-05-02 06:46:16 51°13.595 2°56.103 19.5078 4.903398 33.139528 -0.814958
2005-05-02 06:46:21 51°13.595 2°56.102 19.511 4.903293 33.139232 -0.814958
2005-05-02 06:46:27 51°13.595 2°56.103 19.5119 4.903293 33.14024 -0.814958
2005-05-02 06:46:32 51°13.595 2°56.104 19.5109 4.903082 33.138641 -0.781249
2005-05-02 06:46:37 51°13.596 2°56.104 19.511 4.903082 33.139145 -0.781249
2005-05-02 06:46:42 51°13.596 2°56.105 19.5123 4.903082 33.140153 -0.814958
2005-05-02 06:46:46 51°13.596 2°56.106 19.5107 4.903082 33.140153 -0.814958
2005-05-02 06:46:51 51°13.596 2°56.107 19.5133 4.902976 33.139353 -0.814958
2005-05-02 06:46:57 51°13.596 2°56.108 19.5133 4.902765 33.138762 -0.814958
2005-05-02 06:47:01 51°13.596 2°56.108 19.5161 4.902765 33.139266 -0.814958
2005-05-02 06:47:06 51°13.596 2°56.108 19.5195 4.902765 33.139771 -0.781249
2005-05-02 06:47:11 51°13.596 2°56.108 19.5202 4.90266 33.139475 -0.781249
2005-05-02 06:47:17 51°13.596 2°56.108 19.523 4.90266 33.139475 -0.781249
2005-05-02 06:47:21 51°13.596 2°56.104 19.5226 4.902554 33.138675 -0.814958
2005-05-02 06:47:26 51°13.595 2°56.101 19.521 4.902554 33.139684 -0.781249
2005-05-02 06:47:31 51°13.595 2°56.101 19.5212 4.902449 33.139388 -0.781249
2005-05-02 06:47:36 51°13.594 2°56.101 16.8591 4.902343 33.139597 -0.781249
2005-05-02 06:47:41 51°13.594 2°56.101 15.6694 4.893798 33.115639 -0.241899
2005-05-02 06:47:47 51°13.595 2°56.102 15.2676 4.893798 33.115639 -0.241899
2005-05-02 06:47:51 51°13.595 2°56.102 14.9753 4.827125 32.805829 -0.376736
2005-05-02 06:47:56 51°13.594 2°56.102 14.8192 4.300485 28.845727 0.93793
2005-05-02 06:48:01 51°13.594 2°56.102 14.7173 4.413122 30.196245 1.578409
2005-05-02 06:48:07 51°13.594 2°56.101 14.6396 4.611445 33.561785 1.713247
2005-05-02 06:48:11 51°13.594 2°56.1 14.5892 3.887064 28.792763 1.645828
2005-05-02 06:48:17 51°13.594 2°56.099 14.5657 3.887064 28.792763 1.645828
2005-05-02 06:48:21 51°13.594 2°56.097 14.567 3.123628 23.312893 2.117759
2005-05-02 06:48:27 51°13.595 2°56.094 14.4663 2.783985 20.932752 2.454853
2005-05-02 06:48:31 51°13.595 2°56.092 14.478 2.636495 19.968165 2.555982
2005-05-02 06:48:36 51°13.596 2°56.089 14.4203 2.547518 19.407248 2.488563
2005-05-02 06:48:42 51°13.597 2°56.086 14.2982 2.496096 19.093463 2.387435
2005-05-02 06:48:47 51°13.598 2°56.083 14.3419 2.496096 19.093463 2.387435
2005-05-02 06:48:52 51°13.599 2°56.079 14.1927 2.471387 18.961475 2.387435
2005-05-02 06:48:57 51°13.6 2°56.075 13.8651 2.426071 18.618007 2.421144
2005-05-02 06:49:02 51°13.601 2°56.07 13.5926 2.449728 18.858106 2.387435
2005-05-02 06:49:07 51°13.602 2°56.066 13.387 2.428174 18.699485 2.387435
2005-05-02 06:49:12 51°13.604 2°56.061 13.2221 2.446154 18.888176 2.791947
2005-05-02 06:49:17 51°13.605 2°56.056 13.1288 2.446154 18.888176 2.791947
2005-05-02 06:49:22 51°13.606 2°56.05 13.0838 2.478014 19.194851 3.668392
2005-05-02 06:49:27 51°13.608 2°56.044 13.0569 2.471495 19.162595 3.836939
2005-05-02 06:49:31 51°13.609 2°56.039 12.9534 2.566141 20.064653 6.061759
2005-05-02 06:49:37 51°13.611 2°56.033 12.8766 2.683634 21.198991 9.129315
2005-05-02 06:49:42 51°13.613 2°56.026 12.8651 2.864296 22.95728 12.399127
2005-05-02 06:49:47 51°13.615 2°56.02 12.7936 2.864296 22.95728 12.399127
2005-05-02 06:49:52 51°13.617 2°56.013 12.7437 2.993228 24.216147 14.421691
2005-05-02 06:49:57 51°13.619 2°56.007 12.7079 3.058285 24.896139 16.545383
2005-05-02 06:50:02 51°13.622 2°55.999 12.6496 3.076814 25.127924 17.118443
2005-05-02 06:50:07 51°13.624 2°55.993 12.6112 3.128193 25.655831 17.893759
2005-05-02 06:50:12 51°13.626 2°55.986 12.584 3.14483 25.869466 18.534238
2005-05-02 06:50:17 51°13.629 2°55.979 12.5952 3.14483 25.869466 18.534238
2005-05-02 06:50:22 51°13.632 2°55.971 12.5265 3.206639 26.481362 18.770204
2005-05-02 06:50:27 51°13.635 2°55.965 12.5036 3.239705 26.842477 19.343264
2005-05-02 06:50:31 51°13.637 2°55.958 12.4772 3.269614 27.165507 19.275845
2005-05-02 06:50:37 51°13.641 2°55.95 12.4627 3.284148 27.331011 19.680358
2005-05-02 06:50:42 51°13.644 2°55.943 12.45 3.296997 27.497259 19.882614
2005-05-02 06:50:47 51°13.647 2°55.935 12.4309 3.296997 27.497259 19.882614
2005-05-02 06:50:52 51°13.651 2°55.928 12.3885 3.303422 27.59056 19.983742
2005-05-02 06:50:57 51°13.654 2°55.921 12.3484 3.310584 27.67897 20.219708
2005-05-02 06:51:02 51°13.657 2°55.913 12.328 3.321853 27.814201 19.882614
2005-05-02 06:51:07 51°13.66 2°55.906 12.3061 3.339759 28.010248 19.815195
2005-05-02 06:51:12 51°13.664 2°55.898 12.2974 3.340075 28.035172 20.084871
2005-05-02 06:51:17 51°13.667 2°55.891 12.2784 3.340075 28.035172 20.084871
2005-05-02 06:51:22 51°13.67 2°55.884 12.2724 3.366512 28.301472 20.185999
2005-05-02 06:51:27 51°13.673 2°55.877 12.2525 3.35124 28.187296 20.455674
2005-05-02 06:51:32 51°13.677 2°55.87 12.2355 3.387895 28.556173 19.747777
2005-05-02 06:51:37 51°13.68 2°55.863 12.2494 3.400535 28.693867 18.803913
2005-05-02 06:51:42 51°13.683 2°55.855 12.2476 3.4176 28.880435 18.938751
2005-05-02 06:51:47 51°13.686 2°55.849 12.2392 3.4176 28.880435 18.938751
2005-05-02 06:51:52 51°13.689 2°55.841 12.2326 3.395901 28.699363 18.905042
2005-05-02 06:51:57 51°13.693 2°55.833 12.2227 3.408015 28.829002 18.534238
2005-05-02 06:52:02 51°13.696 2°55.824 12.2169 3.41423 28.904704 18.43311
2005-05-02 06:52:07 51°13.699 2°55.817 12.2163 3.42055 28.979695 18.534238
2005-05-02 06:52:12 51°13.702 2°55.809 12.2033 3.417285 28.952653 17.556665
2005-05-02 06:52:17 51°13.704 2°55.801 12.1918 3.417285 28.952653 17.556665
2005-05-02 06:52:22 51°13.708 2°55.792 12.2179 3.408016 28.868635 17.691503
2005-05-02 06:52:27 51°13.71 2°55.785 12.2037 3.41876 28.974347 18.129725
2005-05-02 06:52:31 51°13.712 2°55.778 12.1905 3.419708 28.991106 16.511674
2005-05-02 06:52:37 51°13.715 2°55.769 12.2079 3.433929 29.130839 16.781349
2005-05-02 06:52:42 51°13.716 2°55.761 12.2033 3.420446 29.014969 17.084734
2005-05-02 06:52:47 51°13.718 2°55.752 12.1885 3.420446 29.014969 17.084734
2005-05-02 06:52:52 51°13.72 2°55.744 12.1856 3.423922 29.056745 16.74764
2005-05-02 06:52:57 51°13.721 2°55.737 12.2179 3.439723 29.205426 15.972324
2005-05-02 06:53:02 51°13.723 2°55.73 12.1778 3.439091 29.201304 17.017315
2005-05-02 06:53:07 51°13.723 2°55.724 12.2044 3.44046 29.217854 16.208289
2005-05-02 06:53:12 51°13.724 2°55.719 12.2097 3.449203 29.300188 16.74764
2005-05-02 06:53:17 51°13.725 2°55.716 12.205 3.449203 29.300188 16.74764
2005-05-02 06:53:21 51°13.725 2°55.714 12.2207 3.436457 29.185043 15.63523
2005-05-02 06:53:26 51°13.725 2°55.713 12.2011 3.441198 29.233949 15.567811
2005-05-02 06:53:31 51°13.725 2°55.714 12.2041 3.44025 29.22563 15.736358
2005-05-02 06:53:37 51°13.725 2°55.715 12.2375 3.439302 29.220973 16.140871
2005-05-02 06:53:41 51°13.725 2°55.717 12.2556 3.428978 29.121326 15.60152
2005-05-02 06:53:46 51°13.726 2°55.719 12.298 3.428978 29.121326 15.60152
2005-05-02 06:53:51 51°13.727 2°55.72 12.3169 3.417075 29.008087 14.994751
2005-05-02 06:53:55 51°13.727 2°55.72 12.3374 3.412862 28.964214 15.365554
2005-05-02 06:54:02 51°13.727 2°55.72 12.3572 3.420446 29.036167 15.02846
2005-05-02 06:54:06 51°13.727 2°55.719 12.3636 3.400853 28.851901 15.06217
2005-05-02 06:54:11 51°13.726 2°55.718 12.3484 3.397167 28.807625 14.927332
2005-05-02 06:54:17 51°13.725 2°55.716 12.3544 3.397167 28.807625 14.927332
2005-05-02 06:54:21 51°13.725 2°55.714 12.353 3.365778 28.495058 14.927332
2005-05-02 06:54:27 51°13.723 2°55.711 12.3501 3.342816 28.259821 16.17458
2005-05-02 06:54:31 51°13.722 2°55.709 12.3278 3.30964 27.93028 16.039742
2005-05-02 06:54:37 51°13.722 2°55.708 12.3049 3.290261 27.733182 15.837486
2005-05-02 06:54:42 51°13.722 2°55.708 12.2951 3.291735 27.735978 17.657794
2005-05-02 06:54:47 51°13.723 2°55.708 12.2865 3.291735 27.735978 17.657794
2005-05-02 06:54:52 51°13.724 2°55.71 12.2831 3.263932 27.475745 15.399264
2005-05-02 06:54:57 51°13.725 2°55.711 12.2685 3.268461 27.516206 17.152153
2005-05-02 06:55:02 51°13.727 2°55.712 12.2691 3.277518 27.600005 16.410546
2005-05-02 06:55:07 51°13.728 2°55.712 12.2733 3.287102 27.699106 16.781349
2005-05-02 06:55:12 51°13.728 2°55.713 12.2648 3.292578 27.759991 15.60152
2005-05-02 06:55:17 51°13.727 2°55.713 12.2632 3.292578 27.759991 15.60152
2005-05-02 06:55:22 51°13.726 2°55.712 12.2678 3.306585 27.903493 16.545383
2005-05-02 06:55:26 51°13.725 2°55.712 12.2739 3.310588 27.946113 16.781349
2005-05-02 06:55:31 51°13.723 2°55.712 12.2731 3.317328 28.019604 16.275708
2005-05-02 06:55:37 51°13.72 2°55.711 12.2691 3.351137 28.343042 16.376836
2005-05-02 06:55:42 51°13.718 2°55.71 12.2476 3.351874 28.35231 17.691503
2005-05-02 06:55:47 51°13.717 2°55.71 12.2469 3.351874 28.35231 17.691503
2005-05-02 06:55:52 51°13.718 2°55.71 12.2289 3.352401 28.36138 17.219571
2005-05-02 06:55:57 51°13.719 2°55.71 12.2237 3.350821 28.34776 16.511674
2005-05-02 06:56:02 51°13.722 2°55.709 12.2195 3.35198 28.358024 17.28699
2005-05-02 06:56:07 51°13.725 2°55.709 12.2111 3.346082 28.302769 17.152153
2005-05-02 06:56:12 51°13.728 2°55.707 12.22 3.348925 28.330589 17.556665
2005-05-02 06:56:17 51°13.732 2°55.705 12.216 3.348925 28.330589 17.556665
2005-05-02 06:56:22 51°13.737 2°55.702 12.2279 3.359458 28.438769 17.051024
2005-05-02 06:56:27 51°13.741 2°55.699 12.2226 3.366094 28.510504 16.74764
2005-05-02 06:56:31 51°13.746 2°55.695 12.232 3.374204 28.593764 16.882477
2005-05-02 06:56:37 51°13.754 2°55.691 12.2145 3.371782 28.576986 17.893759
2005-05-02 06:56:41 51°13.759 2°55.687 12.2009 3.373257 28.597396 16.444255
2005-05-02 06:56:47 51°13.769 2°55.681 12.1919 3.373257 28.597396 16.444255
2005-05-02 06:56:51 51°13.776 2°55.676 12.2008 3.381683 28.677742 18.264563
2005-05-02 06:56:56 51°13.783 2°55.671 12.2191 3.38379 28.695737 17.118443
2005-05-02 06:57:02 51°13.794 2°55.664 12.2243 3.379366 28.653579 17.522956
2005-05-02 06:57:07 51°13.803 2°55.658 12.236 3.385791 28.713342 16.882477
2005-05-02 06:57:11 51°13.811 2°55.652 12.2472 3.378523 28.651047 18.365691
2005-05-02 06:57:16 51°13.821 2°55.646 12.2611 3.378523 28.651047 18.365691
2005-05-02 06:57:21 51°13.831 2°55.639 12.2708 3.387055 28.737817 16.848768
2005-05-02 06:57:27 51°13.842 2°55.632 12.2797 3.400116 28.864854 17.253281
2005-05-02 06:57:31 51°13.85 2°55.626 12.2867 3.397167 28.834099 18.298272
2005-05-02 06:57:35 51°13.859 2°55.62 12.2936 3.383474 28.700558 16.916187
2005-05-02 06:57:41 51°13.871 2°55.611 12.2883 3.375785 28.621735 19.848905
2005-05-02 06:57:47 51°13.882 2°55.604 12.2858 3.375785 28.621735 19.848905
2005-05-02 06:57:52 51°13.893 2°55.596 12.2847 3.36325 28.495713 18.197144
2005-05-02 06:57:57 51°13.903 2°55.59 12.2893 3.33913 28.258868 17.657794
2005-05-02 06:58:01 51°13.912 2°55.583 12.2921 3.328387 28.150587 16.612802
2005-05-02 06:58:06 51°13.923 2°55.575 12.2948 3.320909 28.072382 17.590375
2005-05-02 06:58:11 51°13.934 2°55.567 12.2997 3.325017 28.104967 17.86005
2005-05-02 06:58:17 51°13.946 2°55.559 12.3056 3.325017 28.104967 17.86005
2005-05-02 06:58:21 51°13.954 2°55.553 12.313 3.325017 28.104967 18.298272
2005-05-02 06:58:27 51°13.967 2°55.543 12.3163 3.314906 28.010372 18.905042
2005-05-02 06:58:31 51°13.977 2°55.537 12.3234 3.312378 27.986147 19.073589
2005-05-02 06:58:37 51°13.989 2°55.528 12.3302 3.309429 27.956239 18.028597
2005-05-02 06:58:41 51°13.998 2°55.52 12.3364 3.315011 28.006105 17.522956
2005-05-02 06:58:47 51°14.01 2°55.511 12.3445 3.315011 28.006105 17.522956
2005-05-02 06:58:51 51°14.02 2°55.503 12.3451 3.303953 27.899805 16.006033
2005-05-02 06:58:56 51°14.031 2°55.496 12.347 3.305427 27.910099 17.455537
2005-05-02 06:59:02 51°14.044 2°55.486 12.3484 3.298687 27.843055 16.781349
2005-05-02 06:59:07 51°14.056 2°55.477 12.3468 3.286681 27.725731 16.343127
2005-05-02 06:59:11 51°14.066 2°55.469 12.3526 3.282363 27.681394 15.60152
2005-05-02 06:59:17 51°14.079 2°55.46 12.3528 3.282363 27.681394 15.60152
2005-05-02 06:59:21 51°14.088 2°55.453 12.3495 3.27636 27.620209 16.410546
2005-05-02 06:59:27 51°14.102 2°55.443 12.3396 3.275833 27.610701 15.803777
2005-05-02 06:59:31 51°14.113 2°55.435 12.3377 3.274569 27.596046 16.140871
2005-05-02 06:59:36 51°14.124 2°55.425 12.3253 3.272252 27.573296 15.298136
2005-05-02 06:59:41 51°14.135 2°55.417 12.3071 3.272779 27.575911 16.410546
2005-05-02 06:59:47 51°14.149 2°55.405 12.2868 3.272779 27.575911 16.410546
2005-05-02 06:59:52 51°14.16 2°55.395 12.2812 3.272463 27.571819 17.556665
2005-05-02 06:59:57 51°14.172 2°55.385 12.2822 3.279203 27.635233 15.264426
2005-05-02 07:00:01 51°14.181 2°55.377 12.2906 3.278255 27.62697 16.17458
2005-05-02 07:00:06 51°14.194 2°55.364 12.3103 3.282889 27.674788 13.241862
2005-05-02 07:00:11 51°14.205 2°55.352 12.3199 3.314906 27.978893 12.938477
2005-05-02 07:00:17 51°14.217 2°55.337 12.3289 3.314906 27.978893 12.938477
2005-05-02 07:00:21 51°14.227 2°55.325 12.3469 3.328598 28.117974 12.331708
2005-05-02 07:00:26 51°14.238 2°55.31 12.371 3.341342 28.250137 12.635093
2005-05-02 07:00:31 51°14.249 2°55.295 12.3936 3.346819 28.309085 11.859777
2005-05-02 07:00:37 51°14.259 2°55.277 12.4259 3.343975 28.28245 12.028324
2005-05-02 07:00:42 51°14.269 2°55.26 12.4519 3.334812 28.190186 12.028324
2005-05-02 07:00:46 51°14.277 2°55.244 12.4752 3.334812 28.190186 12.028324
2005-05-02 07:00:51 51°14.287 2°55.226 12.486 3.326281 28.102155 11.826067
2005-05-02 07:00:57 51°14.298 2°55.205 12.4904 3.315432 27.991969 12.904768
2005-05-02 07:01:01 51°14.306 2°55.188 12.4832 3.294474 27.783458 13.208153
2005-05-02 07:01:07 51°14.317 2°55.166 12.4522 3.267618 27.51522 14.017178
2005-05-02 07:01:11 51°14.326 2°55.149 12.4131 3.237921 27.218377 13.241862
2005-05-02 07:01:17 51°14.337 2°55.127 12.3783 3.237921 27.218377 13.241862
2005-05-02 07:01:21 51°14.345 2°55.11 12.3238 3.20812 26.923059 12.76993
2005-05-02 07:01:27 51°14.357 2°55.086 12.2878 3.186638 26.705015 12.702512
2005-05-02 07:01:31 51°14.367 2°55.068 12.2301 3.17137 26.551534 12.432836
2005-05-02 07:01:37 51°14.379 2°55.047 12.2202 3.16779 26.515118 14.691366
2005-05-02 07:01:41 51°14.39 2°55.03 12.1789 3.179583 26.633053 15.399264
2005-05-02 07:01:47 51°14.404 2°55.011 12.1525 3.179583 26.633053 15.399264
2005-05-02 07:01:51 51°14.416 2°54.998 12.1273 3.206856 26.904637 13.983469
2005-05-02 07:01:57 51°14.431 2°54.981 12.0894 3.243818 27.275475 14.084597
2005-05-02 07:02:01 51°14.444 2°54.968 12.0535 3.282994 27.676346 13.91605
2005-05-02 07:02:07 51°14.46 2°54.952 12.0453 3.319961 28.055326 13.309281
2005-05-02 07:02:11 51°14.472 2°54.939 12.0402 3.350822 28.370821 13.039606
2005-05-02 07:02:17 51°14.487 2°54.923 12.0406 3.350822 28.370821 13.039606
2005-05-02 07:02:21 51°14.5 2°54.909 12.0437 3.381051 28.681385 12.871059
2005-05-02 07:02:26 51°14.513 2°54.894 12.0396 3.341975 28.339908 13.3767
2005-05-02 07:02:32 51°14.528 2°54.877 12.0356 3.374732 28.677108 11.960905
2005-05-02 07:02:36 51°14.539 2°54.864 12.0401 3.344925 28.431207 13.3767
2005-05-02 07:02:41 51°14.552 2°54.848 12.0326 3.375049 28.736029 12.466546
2005-05-02 07:02:46 51°14.566 2°54.833 12.0302 3.375049 28.736029 12.466546
2005-05-02 07:02:51 51°14.582 2°54.816 12.0285 3.449943 29.454121 12.466546
2005-05-02 07:02:57 51°14.599 2°54.799 12.0363 3.467957 29.630316 12.163161
2005-05-02 07:03:01 51°14.613 2°54.786 12.0202 3.479334 29.742526 12.466546
2005-05-02 07:03:06 51°14.628 2°54.771 12.0288 3.512098 30.057831 11.11817
2005-05-02 07:03:11 51°14.644 2°54.756 12.0259 3.540333 30.328687 12.196871
2005-05-02 07:03:15 51°14.657 2°54.744 12.0264 3.540333 30.328687 12.196871
2005-05-02 07:03:21 51°14.677 2°54.728 12.0122 3.497349 29.920948 11.69123
2005-05-02 07:03:27 51°14.695 2°54.713 12.015 3.558876 30.508294 11.253007
2005-05-02 07:03:31 51°14.71 2°54.7 11.9917 3.534011 30.271765 11.724939
2005-05-02 07:03:36 51°14.727 2°54.687 11.9957 3.645486 31.338794 11.050751
2005-05-02 07:03:41 51°14.742 2°54.675 11.9861 3.654653 31.428388 11.421554
2005-05-02 07:03:47 51°14.761 2°54.658 11.9924 3.654653 31.428388 11.421554
2005-05-02 07:03:51 51°14.776 2°54.646 11.9817 3.659816 31.479074 11.556392
2005-05-02 07:03:56 51°14.793 2°54.632 11.9693 3.666771 31.550229 11.69123
2005-05-02 07:04:01 51°14.81 2°54.619 11.9794 3.67341 31.620396 11.11817
2005-05-02 07:04:07 51°14.828 2°54.604 11.9659 3.682683 31.716507 11.387845
2005-05-02 07:04:11 51°14.843 2°54.592 11.9739 3.686688 31.762214 10.915913
2005-05-02 07:04:16 51°14.859 2°54.578 11.965 3.686688 31.762214 10.915913
2005-05-02 07:04:21 51°14.876 2°54.564 11.9757 3.690481 31.80392 11.455264
2005-05-02 07:04:27 51°14.895 2°54.549 11.9706 3.69164 31.816369 11.758648
2005-05-02 07:04:31 51°14.91 2°54.538 11.9672 3.696066 31.864164 11.050751
2005-05-02 07:04:36 51°14.925 2°54.526 11.9763 3.698069 31.886721 11.354136
2005-05-02 07:04:42 51°14.944 2°54.51 11.9711 3.701019 31.921745 11.08446
2005-05-02 07:04:46 51°14.959 2°54.497 11.9742 3.701019 31.921745 11.08446
2005-05-02 07:04:51 51°14.975 2°54.482 11.968 3.701546 31.928146 11.11817
2005-05-02 07:04:57 51°14.993 2°54.467 11.9701 3.702179 31.935558 11.08446
2005-05-02 07:05:01 51°15.006 2°54.455 11.9586 3.701862 31.932525 10.309144
2005-05-02 07:05:06 51°15.024 2°54.439 11.954 3.702389 31.938254 11.354136
2005-05-02 07:05:11 51°15.04 2°54.425 11.952 3.701336 31.929489 10.848494
2005-05-02 07:05:17 51°15.058 2°54.408 11.9368 3.701336 31.929489 10.848494
2005-05-02 07:05:21 51°15.073 2°54.395 11.9384 3.701125 31.926794 11.151879
2005-05-02 07:05:27 51°15.091 2°54.379 11.917 3.70123 31.929824 11.08446
2005-05-02 07:05:31 51°15.106 2°54.367 11.9152 3.699649 31.916003 11.017042
2005-05-02 07:05:36 51°15.122 2°54.352 11.8933 3.697331 31.895776 10.915913
2005-05-02 07:05:41 51°15.138 2°54.34 11.8872 3.693327 31.862732 11.050751
2005-05-02 07:05:46 51°15.156 2°54.325 11.8691 3.693327 31.862732 11.050751
2005-05-02 07:05:51 51°15.173 2°54.312 11.8611 3.68848 31.822267 10.477691
2005-05-02 07:05:56 51°15.191 2°54.299 11.8554 3.683843 31.783817 10.578819
2005-05-02 07:06:01 51°15.208 2°54.287 11.8332 3.679523 31.753085 10.781076
2005-05-02 07:06:07 51°15.227 2°54.273 11.8211 3.676256 31.729105 11.455264
2005-05-02 07:06:11 51°15.243 2°54.261 11.8148 3.674781 31.724992 10.713657
2005-05-02 07:06:16 51°15.26 2°54.248 11.8026 3.674781 31.724992 10.713657
2005-05-02 07:06:21 51°15.275 2°54.236 11.7996 3.671936 31.708394 10.713657
2005-05-02 07:06:27 51°15.295 2°54.22 11.7945 3.668354 31.690062 11.893486
2005-05-02 07:06:31 51°15.311 2°54.207 11.7897 3.665192 31.66907 11.286717
2005-05-02 07:06:37 51°15.329 2°54.193 11.7979 3.660978 31.641292 12.129452
2005-05-02 07:06:41 51°15.343 2°54.182 11.7956 3.657817 31.62162 12.331708
2005-05-02 07:06:47 51°15.363 2°54.166 11.8065 3.657817 31.62162 12.331708
2005-05-02 07:06:51 51°15.378 2°54.154 11.8172 3.654972 31.608323 11.354136
2005-05-02 07:06:57 51°15.397 2°54.14 11.8208 3.65023 31.572765 12.533965
2005-05-02 07:07:01 51°15.411 2°54.129 11.825 3.646542 31.542651 11.792358
2005-05-02 07:07:06 51°15.427 2°54.115 11.8281 3.643697 31.519303 12.028324
2005-05-02 07:07:12 51°15.447 2°54.097 11.8293 3.64022 31.488538 11.286717
2005-05-02 07:07:16 51°15.46 2°54.086 11.8265 3.64022 31.488538 11.286717
2005-05-02 07:07:21 51°15.479 2°54.069 11.825 3.637691 31.464892 10.747366
2005-05-02 07:07:26 51°15.495 2°54.055 11.8239 3.635268 31.436932 11.387845
2005-05-02 07:07:31 51°15.511 2°54.04 11.8035 3.634635 31.424865 10.275435
2005-05-02 07:07:37 51°15.53 2°54.024 11.7954 3.634214 31.416823 10.241725
2005-05-02 07:07:42 51°15.546 2°54.009 11.7839 3.633055 31.401034 10.814785
2005-05-02 07:07:47 51°15.562 2°53.995 11.7732 3.633055 31.401034 10.814785
2005-05-02 07:07:51 51°15.578 2°53.983 11.7661 3.631895 31.387907 9.837212
2005-05-02 07:07:56 51°15.594 2°53.969 11.7427 3.631579 31.386864 10.54511
2005-05-02 07:08:01 51°15.609 2°53.957 11.7391 3.630104 31.373359 9.97205
2005-05-02 07:08:07 51°15.63 2°53.941 11.7335 3.629999 31.378325 9.500118
2005-05-02 07:08:11 51°15.645 2°53.929 11.727 3.629894 31.385952 9.97205
2005-05-02 07:08:16 51°15.66 2°53.917 11.7206 3.629894 31.385952 9.97205
2005-05-02 07:08:21 51°15.677 2°53.904 11.7207 3.628946 31.387477 9.601247
2005-05-02 07:08:27 51°15.698 2°53.888 11.7096 3.626417 31.372477 9.297862
2005-05-02 07:08:31 51°15.713 2°53.876 11.709 3.624626 31.365893 9.129315
2005-05-02 07:08:37 51°15.731 2°53.861 11.7025 3.620306 31.335648 8.82593
2005-05-02 07:08:41 51°15.746 2°53.849 11.7032 3.616091 31.302416 8.084324
2005-05-02 07:08:47 51°15.765 2°53.834 11.694 3.616091 31.302416 8.084324
2005-05-02 07:08:51 51°15.78 2°53.822 11.689 3.611244 31.264423 8.724802
2005-05-02 07:08:56 51°15.797 2°53.808 11.6944 3.607241 31.232539 8.219161
2005-05-02 07:09:01 51°15.814 2°53.795 11.6843 3.60271 31.19293 8.185452
2005-05-02 07:09:06 51°15.83 2°53.781 11.6807 3.598495 31.158345 7.848358
2005-05-02 07:09:11 51°15.847 2°53.768 11.6796 3.595124 31.131864 7.915777
2005-05-02 07:09:17 51°15.866 2°53.753 11.685 3.595124 31.131864 7.915777
2005-05-02 07:09:21 51°15.879 2°53.742 11.6786 3.59112 31.096653 7.814648
2005-05-02 07:09:27 51°15.899 2°53.726 11.6719 3.587011 31.063067 7.848358
2005-05-02 07:09:31 51°15.915 2°53.714 11.6689 3.584588 31.041076 7.780939
2005-05-02 07:09:37 51°15.933 2°53.7 11.6553 3.582164 31.021063 7.376426
2005-05-02 07:09:42 51°15.95 2°53.687 11.6527 3.580268 31.008092 7.983195
2005-05-02 07:09:46 51°15.965 2°53.675 11.6398 3.580268 31.008092 7.983195
2005-05-02 07:09:51 51°15.982 2°53.661 11.6367 3.579214 30.999933 7.17417
2005-05-02 07:09:57 51°16.001 2°53.647 11.6342 3.578477 30.992838 8.084324
2005-05-02 07:10:01 51°16.014 2°53.636 11.6185 3.577529 30.987668 7.915777
2005-05-02 07:10:07 51°16.035 2°53.621 11.6084 3.575948 30.977732 7.949486
2005-05-02 07:10:11 51°16.05 2°53.609 11.6065 3.574789 30.973167 8.050614
2005-05-02 07:10:17 51°16.069 2°53.595 11.5952 3.574789 30.973167 8.050614
2005-05-02 07:10:21 51°16.085 2°53.584 11.5804 3.574263 30.973367 9.095606
2005-05-02 07:10:27 51°16.103 2°53.57 11.5796 3.573525 30.974175 7.983195
2005-05-02 07:10:31 51°16.119 2°53.558 11.5728 3.573104 30.97605 7.780939
2005-05-02 07:10:36 51°16.134 2°53.547 11.557 3.571945 30.97478 8.084324
2005-05-02 07:10:42 51°16.155 2°53.531 11.5512 3.570997 30.97422 7.74723
2005-05-02 07:10:46 51°16.169 2°53.521 11.5338 3.570997 30.97422 7.74723
2005-05-02 07:10:51 51°16.187 2°53.507 11.5346 3.569311 30.962596 7.679811
2005-05-02 07:10:56 51°16.205 2°53.494 11.5226 3.567309 30.95386 7.848358
2005-05-02 07:11:01 51°16.22 2°53.482 11.5265 3.565202 30.944105 7.983195
2005-05-02 07:11:07 51°16.241 2°53.467 11.5185 3.56299 30.928712 9.061896
2005-05-02 07:11:12 51°16.258 2°53.454 11.5244 3.561304 30.92367 7.915777
2005-05-02 07:11:16 51°16.273 2°53.442 11.5167 3.561304 30.92367 7.915777
2005-05-02 07:11:21 51°16.289 2°53.43 11.5154 3.559303 30.913599 8.353999
2005-05-02 07:11:27 51°16.309 2°53.414 11.5207 3.557301 30.900885 8.353999
2005-05-02 07:11:31 51°16.324 2°53.402 11.5212 3.555826 30.895229 7.848358
2005-05-02 07:11:37 51°16.343 2°53.387 11.5189 3.554772 30.88968 8.28658
2005-05-02 07:11:41 51°16.358 2°53.375 11.518 3.553087 30.878029 8.623674
2005-05-02 07:11:47 51°16.377 2°53.36 11.5177 3.553087 30.878029 8.623674
2005-05-02 07:11:51 51°16.392 2°53.347 11.5163 3.552665 30.874622 8.623674
2005-05-02 07:11:57 51°16.411 2°53.333 11.515 3.552033 30.872477 7.410136
2005-05-02 07:12:01 51°16.426 2°53.321 11.5124 3.551928 30.872779 8.488836
2005-05-02 07:12:07 51°16.445 2°53.307 11.5073 3.551612 30.869729 8.28658
2005-05-02 07:12:11 51°16.46 2°53.295 11.5086 3.551823 30.871103 8.792221
2005-05-02 07:12:17 51°16.479 2°53.281 11.4945 3.551823 30.871103 8.792221
2005-05-02 07:12:21 51°16.493 2°53.27 11.4924 3.55119 30.86698 7.511264
2005-05-02 07:12:27 51°16.513 2°53.254 11.499 3.551085 30.865963 8.050614
2005-05-02 07:12:31 51°16.529 2°53.243 11.5019 3.550453 30.860521 8.691093
2005-05-02 07:12:37 51°16.547 2°53.228 11.5132 3.549821 30.857716 8.455127
2005-05-02 07:12:42 51°16.564 2°53.215 11.518 3.549294 30.855927 7.848358
2005-05-02 07:12:46 51°16.579 2°53.202 11.5282 3.549294 30.855927 7.848358
2005-05-02 07:12:51 51°16.596 2°53.189 11.5394 3.547292 30.83924 8.084324
2005-05-02 07:12:56 51°16.614 2°53.176 11.5489 3.544448 30.817709 7.646101
2005-05-02 07:13:02 51°16.632 2°53.162 11.5578 3.542446 30.798385 8.084324
2005-05-02 07:13:07 51°16.649 2°53.148 11.5699 3.541182 30.786181 8.556255
2005-05-02 07:13:11 51°16.664 2°53.136 11.5822 3.540234 30.77374 7.848358
2005-05-02 07:13:17 51°16.682 2°53.119 11.5932 3.540234 30.77374 7.848358
2005-05-02 07:13:21 51°16.695 2°53.108 11.6031 3.540023 30.765133 7.983195
2005-05-02 07:13:27 51°16.714 2°53.089 11.6179 3.539812 30.755872 8.219161
2005-05-02 07:13:31 51°16.728 2°53.075 11.6292 3.539812 30.747991 8.353999
2005-05-02 07:13:37 51°16.746 2°53.057 11.635 3.540865 30.750273 8.084324
2005-05-02 07:13:41 51°16.76 2°53.043 11.6388 3.541181 30.742165 7.309007
2005-05-02 07:13:46 51°16.775 2°53.027 11.6418 3.541181 30.742165 7.309007
2005-05-02 07:13:51 51°16.791 2°53.01 11.6436 3.542235 30.743136 7.207879
2005-05-02 07:13:57 51°16.808 2°52.993 11.645 3.543288 30.742141 7.275298
2005-05-02 07:14:01 51°16.822 2°52.979 11.6461 3.545079 30.748906 7.544973
2005-05-02 07:14:07 51°16.84 2°52.962 11.6438 3.54687 30.755667 7.612392
2005-05-02 07:14:11 51°16.854 2°52.948 11.6459 3.548766 30.764095 7.578683
2005-05-02 07:14:17 51°16.871 2°52.931 11.6379 3.548766 30.764095 7.578683
2005-05-02 07:14:21 51°16.884 2°52.92 11.6321 3.549293 30.762614 7.646101
2005-05-02 07:14:27 51°16.903 2°52.901 11.626 3.550452 30.769181 7.14046
2005-05-02 07:14:31 51°16.918 2°52.888 11.6219 3.551611 30.777713 7.477554
2005-05-02 07:14:37 51°16.935 2°52.871 11.609 3.552032 30.779802 7.410136
2005-05-02 07:14:41 51°16.948 2°52.858 11.6024 3.553296 30.790001 7.882067
2005-05-02 07:14:47 51°16.968 2°52.84 11.6048 3.553296 30.790001 7.882067
2005-05-02 07:14:51 51°16.982 2°52.826 11.603 3.553928 30.797395 7.073042
2005-05-02 07:14:57 51°17 2°52.809 11.6025 3.555509 30.815226 7.578683
2005-05-02 07:15:02 51°17.016 2°52.794 11.6033 3.557616 30.840758 7.511264
2005-05-02 07:15:07 51°17.032 2°52.778 11.6063 3.559302 30.8629 7.780939
2005-05-02 07:15:11 51°17.047 2°52.764 11.6019 3.561515 30.890127 8.050614
2005-05-02 07:15:16 51°17.063 2°52.749 11.6008 3.561515 30.890127 8.050614
2005-05-02 07:15:21 51°17.079 2°52.733 11.6039 3.563727 30.917366 8.118033
2005-05-02 07:15:27 51°17.097 2°52.717 11.597 3.565413 30.936244 7.71352
2005-05-02 07:15:31 51°17.112 2°52.703 11.578 3.566677 30.950406 7.882067
2005-05-02 07:15:36 51°17.128 2°52.688 11.5725 3.568152 30.964622 7.949486
2005-05-02 07:15:41 51°17.143 2°52.674 11.5653 3.569101 30.974421 8.387708
2005-05-02 07:15:47 51°17.163 2°52.656 11.5601 3.569101 30.974421 8.387708
2005-05-02 07:15:51 51°17.177 2°52.642 11.5611 3.570892 30.990365 8.488836
2005-05-02 07:15:56 51°17.193 2°52.627 11.5589 3.571419 30.995443 8.353999
2005-05-02 07:16:01 51°17.208 2°52.613 11.5591 3.57321 31.015352 8.016905
2005-05-02 07:16:06 51°17.226 2°52.596 11.5422 3.575844 31.050012 8.016905
2005-05-02 07:16:11 51°17.242 2°52.58 11.5284 3.577214 31.071172 8.724802
2005-05-02 07:16:17 51°17.26 2°52.563 11.5178 3.577214 31.071172 8.724802
2005-05-02 07:16:21 51°17.274 2°52.549 11.5042 3.578583 31.091681 8.893349
2005-05-02 07:16:25 51°17.287 2°52.537 11.4876 3.5789 31.100038 8.252871
2005-05-02 07:16:31 51°17.307 2°52.519 11.4561 3.5789 31.103357 8.252871
2005-05-02 07:16:37 51°17.325 2°52.502 11.4445 3.578584 31.102296 8.016905
2005-05-02 07:16:41 51°17.34 2°52.488 11.4311 3.578584 31.110927 8.960768
2005-05-02 07:16:47 51°17.358 2°52.471 11.419 3.578584 31.110927 8.960768
2005-05-02 07:16:51 51°17.372 2°52.457 11.4015 3.578373 31.118857 8.724802
2005-05-02 07:16:56 51°17.389 2°52.442 11.3987 3.577952 31.128081 8.353999
2005-05-02 07:17:01 51°17.405 2°52.427 11.3818 3.576688 31.127169 8.758512
2005-05-02 07:17:07 51°17.423 2°52.41 11.3706 3.57574 31.133309 8.994477
2005-05-02 07:17:11 51°17.437 2°52.396 11.3625 3.57437 31.139376 8.556255
2005-05-02 07:17:17 51°17.455 2°52.379 11.3676 3.57437 31.139376 8.556255
2005-05-02 07:17:21 51°17.47 2°52.365 11.3577 3.573211 31.140157 9.061896
2005-05-02 07:17:27 51°17.488 2°52.348 11.3484 3.571947 31.141254 9.095606
2005-05-02 07:17:31 51°17.503 2°52.335 11.3535 3.570683 31.142353 9.129315
2005-05-02 07:17:36 51°17.518 2°52.321 11.349 3.569208 31.142748 9.230443
2005-05-02 07:17:42 51°17.537 2°52.303 11.336 3.567944 31.142516 8.758512
2005-05-02 07:17:47 51°17.554 2°52.288 11.3383 3.567944 31.142516 8.758512
2005-05-02 07:17:51 51°17.568 2°52.274 11.3403 3.567312 31.144405 9.095606
2005-05-02 07:17:57 51°17.587 2°52.257 11.3256 3.566996 31.147355 9.365281
2005-05-02 07:18:01 51°17.601 2°52.244 11.3177 3.566469 31.148263 9.264153
2005-05-02 07:18:07 51°17.62 2°52.227 11.3196 3.565627 31.144767 9.163024
2005-05-02 07:18:11 51°17.635 2°52.214 11.3151 3.552035 31.016947 9.196734
2005-05-02 07:18:17 51°17.653 2°52.197 11.3053 3.552035 31.016947 9.196734
2005-05-02 07:18:21 51°17.666 2°52.185 11.2971 3.55351 31.037249 9.533828
2005-05-02 07:18:27 51°17.686 2°52.167 11.2906 3.553089 31.036494 9.466409
2005-05-02 07:18:31 51°17.701 2°52.153 11.2837 3.551509 31.024496 9.668665
2005-05-02 07:18:37 51°17.719 2°52.136 11.2886 3.55193 31.035919 8.792221
2005-05-02 07:18:41 51°17.734 2°52.122 11.2816 3.551403 31.034142 9.365281
2005-05-02 07:18:46 51°17.75 2°52.107 11.283 3.551403 31.034142 9.365281
2005-05-02 07:18:51 51°17.766 2°52.092 11.2818 3.559832 31.119294 9.028187
2005-05-02 07:18:57 51°17.784 2°52.075 11.282 3.527488 30.813439 9.4327
2005-05-02 07:19:01 51°17.797 2°52.063 11.2776 3.525065 30.796562 9.601247
2005-05-02 07:19:07 51°17.817 2°52.045 11.2816 3.516426 30.719397 9.39899
2005-05-02 07:19:11 51°17.832 2°52.031 11.2854 3.526118 30.817383 9.196734
2005-05-02 07:19:17 51°17.85 2°52.015 11.2867 3.526118 30.817383 9.196734
2005-05-02 07:19:22 51°17.866 2°52 11.2858 3.526856 30.825202 9.904631
2005-05-02 07:19:27 51°17.882 2°51.984 11.2887 3.527488 30.833989 9.028187
2005-05-02 07:19:31 51°17.896 2°51.969 11.2862 3.527804 30.837719 9.904631
2005-05-02 07:19:37 51°17.914 2°51.952 11.2968 3.524749 30.81006 9.736084
2005-05-02 07:19:41 51°17.926 2°51.939 11.2879 3.532018 30.881277 8.691093
2005-05-02 07:19:47 51°17.945 2°51.919 11.2943 3.532018 30.881277 8.691093
2005-05-02 07:19:51 51°17.959 2°51.904 11.2925 3.528858 30.849271 8.589965
2005-05-02 07:19:57 51°17.976 2°51.887 11.2885 3.531597 30.875194 9.634956
2005-05-02 07:20:01 51°17.989 2°51.874 11.2828 3.537918 30.934562 8.792221
2005-05-02 07:20:06 51°18.006 2°51.856 11.2749 3.536022 30.914821 8.792221
2005-05-02 07:20:12 51°18.024 2°51.838 11.2616 3.50863 30.649084 9.601247
2005-05-02 07:20:16 51°18.038 2°51.823 11.2468 3.50863 30.649084 9.601247
2005-05-02 07:20:21 51°18.052 2°51.809 11.2104 3.574056 31.283657 9.028187
2005-05-02 07:20:27 51°18.071 2°51.789 11.1739 3.574583 31.287433 9.39899
2005-05-02 07:20:31 51°18.086 2°51.775 11.1309 3.574583 31.288779 8.927059
2005-05-02 07:20:37 51°18.104 2°51.758 11.1129 3.573845 31.283628 9.129315
2005-05-02 07:20:41 51°18.118 2°51.744 11.0762 3.569736 31.247711 9.634956
2005-05-02 07:20:47 51°18.136 2°51.727 11.0616 3.569736 31.247711 9.634956
2005-05-02 07:20:52 51°18.152 2°51.711 11.0397 3.57058 31.267346 9.904631
2005-05-02 07:20:57 51°18.168 2°51.695 11.0222 3.571423 31.291715 10.376563
2005-05-02 07:21:01 51°18.181 2°51.683 11.0207 3.572898 31.32902 10.713657
2005-05-02 07:21:06 51°18.199 2°51.665 10.9964 3.570791 31.338228 11.927195
2005-05-02 07:21:11 51°18.215 2°51.649 10.9723 3.569 31.351898 12.028324
2005-05-02 07:21:17 51°18.232 2°51.631 10.9454 3.569 31.351898 12.028324
2005-05-02 07:21:21 51°18.245 2°51.619 10.9306 3.566472 31.358397 13.005896
2005-05-02 07:21:27 51°18.265 2°51.6 10.9057 3.563522 31.353327 13.005896
2005-05-02 07:21:31 51°18.279 2°51.585 10.8868 3.561416 31.349025 13.140734
2005-05-02 07:21:36 51°18.295 2°51.569 10.8829 3.562469 31.380402 13.174443
2005-05-02 07:21:41 51°18.31 2°51.555 10.8873 3.557834 31.353403 13.949759
2005-05-02 07:21:47 51°18.33 2°51.536 10.8798 3.557834 31.353403 13.949759
2005-05-02 07:21:51 51°18.345 2°51.522 10.8633 3.556043 31.35492 14.084597
2005-05-02 07:21:56 51°18.361 2°51.506 10.8644 3.556149 31.37298 14.387982
2005-05-02 07:22:02 51°18.379 2°51.489 10.8768 3.55046 31.339024 15.736358
2005-05-02 07:22:06 51°18.394 2°51.475 10.8739 3.54751 31.329858 15.668939
2005-05-02 07:22:11 51°18.41 2°51.459 10.8791 3.547615 31.345895 15.534101
2005-05-02 07:22:17 51°18.429 2°51.443 10.8954 3.547615 31.345895 15.534101
2005-05-02 07:22:21 51°18.442 2°51.43 10.9018 3.548037 31.358221 15.365554
2005-05-02 07:22:27 51°18.462 2°51.411 10.9052 3.544771 31.334352 15.230717
2005-05-02 07:22:32 51°18.478 2°51.396 10.9124 3.545614 31.350137 14.826204
2005-05-02 07:22:37 51°18.495 2°51.381 10.924 3.543717 31.330833 15.534101
2005-05-02 07:22:41 51°18.51 2°51.367 10.9482 3.542769 31.321523 15.399264
2005-05-02 07:22:46 51°18.526 2°51.352 10.967 3.542769 31.321523 15.399264
2005-05-02 07:22:51 51°18.542 2°51.336 10.992 3.547405 31.363626 15.534101
2005-05-02 07:22:57 51°18.56 2°51.319 11.0079 3.545614 31.339896 14.826204
2005-05-02 07:23:01 51°18.573 2°51.307 11.0209 3.547299 31.350982 15.264426
2005-05-02 07:23:07 51°18.593 2°51.288 11.0234 3.550881 31.37863 14.826204
2005-05-02 07:23:11 51°18.607 2°51.274 11.0164 3.55183 31.379058 14.758785
2005-05-02 07:23:17 51°18.625 2°51.257 11.0071 3.55183 31.379058 14.758785
2005-05-02 07:23:21 51°18.64 2°51.243 10.9891 3.557203 31.418114 14.017178
2005-05-02 07:23:27 51°18.658 2°51.225 10.9567 3.560469 31.433066 13.545247
2005-05-02 07:23:31 51°18.672 2°51.212 10.9227 3.564683 31.453886 13.241862
2005-05-02 07:23:37 51°18.69 2°51.194 10.8998 3.56542 31.446088 12.601383
2005-05-02 07:23:42 51°18.706 2°51.179 10.8779 3.570161 31.481608 13.747503
2005-05-02 07:23:46 51°18.721 2°51.165 10.8675 3.570161 31.481608 13.747503